<?xml version="1.0" encoding="UTF-8" standalone="no" ?>
<gpx xmlns="http://www.topografix.com/GPX/1/1" xmlns:xsi="http://www.w3.org/2001/XMLSchema-instance" xsi:schemaLocation="http://www.topografix.com/GPX/1/1 http://www.topografix.com/GPX/1/1/gpx.xsd" version="1.1" creator="VisuGPX - https://www.visugpx.com">
  <metadata>
    <name>Gravel Campuac - Pruines 33km 1300D+</name>
  </metadata>
  <trk>
    <name><![CDATA[Gravel Campuac - Pruines 33km 1300D+]]></name>
    <trkseg>
      <trkpt lat="44.56876" lon="2.58826">
        <ele>648.55090332031</ele>
        <time>2020-06-03T17:30:05.000Z</time>
      </trkpt>
      <trkpt lat="44.56875" lon="2.58822">
        <ele>648.29223632812</ele>
        <time>2020-06-03T17:30:05.001Z</time>
      </trkpt>
      <trkpt lat="44.56799" lon="2.58763">
        <ele>642.21667480469</ele>
        <time>2020-06-03T17:30:05.027Z</time>
      </trkpt>
      <trkpt lat="44.56741" lon="2.58716">
        <ele>642.36328125</ele>
        <time>2020-06-03T17:30:05.072Z</time>
      </trkpt>
      <trkpt lat="44.56688" lon="2.58619">
        <ele>639.35711669922</ele>
        <time>2020-06-03T17:30:05.142Z</time>
      </trkpt>
      <trkpt lat="44.56688" lon="2.58619">
        <ele>639.35681152344</ele>
        <time>2020-06-03T17:30:05.212Z</time>
      </trkpt>
      <trkpt lat="44.56675" lon="2.58566">
        <ele>633.80334472656</ele>
        <time>2020-06-03T17:30:05.293Z</time>
      </trkpt>
      <trkpt lat="44.56688" lon="2.58509">
        <ele>630.42767333984</ele>
        <time>2020-06-03T17:30:05.386Z</time>
      </trkpt>
      <trkpt lat="44.56688" lon="2.58482">
        <ele>630.69287109375</ele>
        <time>2020-06-03T17:30:05.485Z</time>
      </trkpt>
      <trkpt lat="44.56672" lon="2.58459">
        <ele>630.37109375</ele>
        <time>2020-06-03T17:30:05.591Z</time>
      </trkpt>
      <trkpt lat="44.56618" lon="2.58435">
        <ele>626.39978027344</ele>
        <time>2020-06-03T17:30:05.713Z</time>
      </trkpt>
      <trkpt lat="44.56606" lon="2.58423">
        <ele>624.43701171875</ele>
        <time>2020-06-03T17:30:05.839Z</time>
      </trkpt>
      <trkpt lat="44.5659" lon="2.58398">
        <ele>622.08135986328</ele>
        <time>2020-06-03T17:30:05.972Z</time>
      </trkpt>
      <trkpt lat="44.56576" lon="2.58327">
        <ele>621.380859375</ele>
        <time>2020-06-03T17:30:06.120Z</time>
      </trkpt>
      <trkpt lat="44.565" lon="2.582">
        <ele>619.88452148438</ele>
        <time>2020-06-03T17:30:06.302Z</time>
      </trkpt>
      <trkpt lat="44.56423" lon="2.58175">
        <ele>624.77587890625</ele>
        <time>2020-06-03T17:30:06.506Z</time>
      </trkpt>
      <trkpt lat="44.56387" lon="2.5817">
        <ele>627.51831054688</ele>
        <time>2020-06-03T17:30:06.720Z</time>
      </trkpt>
      <trkpt lat="44.56351" lon="2.58184">
        <ele>630.22979736328</ele>
        <time>2020-06-03T17:30:06.945Z</time>
      </trkpt>
      <trkpt lat="44.56326" lon="2.58183">
        <ele>632.31512451172</ele>
        <time>2020-06-03T17:30:07.177Z</time>
      </trkpt>
      <trkpt lat="44.56253" lon="2.58147">
        <ele>632.53729248047</ele>
        <time>2020-06-03T17:30:07.431Z</time>
      </trkpt>
      <trkpt lat="44.56104" lon="2.57923">
        <ele>625.49499511719</ele>
        <time>2020-06-03T17:30:07.748Z</time>
      </trkpt>
      <trkpt lat="44.56087" lon="2.57883">
        <ele>623.98669433594</ele>
        <time>2020-06-03T17:30:08.074Z</time>
      </trkpt>
      <trkpt lat="44.5608" lon="2.57844">
        <ele>622.98193359375</ele>
        <time>2020-06-03T17:30:08.409Z</time>
      </trkpt>
      <trkpt lat="44.56062" lon="2.57727">
        <ele>619.79656982422</ele>
        <time>2020-06-03T17:30:08.768Z</time>
      </trkpt>
      <trkpt lat="44.56064" lon="2.57641">
        <ele>618.80120849609</ele>
        <time>2020-06-03T17:30:09.145Z</time>
      </trkpt>
      <trkpt lat="44.56064" lon="2.57641">
        <ele>618.80059814453</ele>
        <time>2020-06-03T17:30:09.522Z</time>
      </trkpt>
      <trkpt lat="44.56064" lon="2.57604">
        <ele>618.91394042969</ele>
        <time>2020-06-03T17:30:09.906Z</time>
      </trkpt>
      <trkpt lat="44.56042" lon="2.57523">
        <ele>618.73693847656</ele>
        <time>2020-06-03T17:30:10.308Z</time>
      </trkpt>
      <trkpt lat="44.56042" lon="2.57472">
        <ele>619</ele>
        <time>2020-06-03T17:30:10.720Z</time>
      </trkpt>
      <trkpt lat="44.56062" lon="2.57383">
        <ele>618.66595458984</ele>
        <time>2020-06-03T17:30:11.152Z</time>
      </trkpt>
      <trkpt lat="44.56105" lon="2.57302">
        <ele>613</ele>
        <time>2020-06-03T17:30:11.604Z</time>
      </trkpt>
      <trkpt lat="44.56127" lon="2.57246">
        <ele>611.85876464844</ele>
        <time>2020-06-03T17:30:12.069Z</time>
      </trkpt>
      <trkpt lat="44.56134" lon="2.57183">
        <ele>607.42437744141</ele>
        <time>2020-06-03T17:30:12.547Z</time>
      </trkpt>
      <trkpt lat="44.56125" lon="2.57152">
        <ele>607.24053955078</ele>
        <time>2020-06-03T17:30:13.032Z</time>
      </trkpt>
      <trkpt lat="44.56015" lon="2.56979">
        <ele>580.63110351562</ele>
        <time>2020-06-03T17:30:13.564Z</time>
      </trkpt>
      <trkpt lat="44.56" lon="2.56883">
        <ele>586.20721435547</ele>
        <time>2020-06-03T17:30:14.116Z</time>
      </trkpt>
      <trkpt lat="44.5597" lon="2.5682">
        <ele>579.1005859375</ele>
        <time>2020-06-03T17:30:14.684Z</time>
      </trkpt>
      <trkpt lat="44.55973" lon="2.56776">
        <ele>575.80523681641</ele>
        <time>2020-06-03T17:30:15.261Z</time>
      </trkpt>
      <trkpt lat="44.56004" lon="2.56652">
        <ele>570.62939453125</ele>
        <time>2020-06-03T17:30:15.865Z</time>
      </trkpt>
      <trkpt lat="44.56087" lon="2.56455">
        <ele>560.92919921875</ele>
        <time>2020-06-03T17:30:16.515Z</time>
      </trkpt>
      <trkpt lat="44.56105" lon="2.56346">
        <ele>547.99328613281</ele>
        <time>2020-06-03T17:30:17.188Z</time>
      </trkpt>
      <trkpt lat="44.56131" lon="2.56325">
        <ele>550.51715087891</ele>
        <time>2020-06-03T17:30:17.870Z</time>
      </trkpt>
      <trkpt lat="44.56171" lon="2.56307">
        <ele>555.8720703125</ele>
        <time>2020-06-03T17:30:18.564Z</time>
      </trkpt>
      <trkpt lat="44.5618" lon="2.56284">
        <ele>554.45355224609</ele>
        <time>2020-06-03T17:30:19.263Z</time>
      </trkpt>
      <trkpt lat="44.56174" lon="2.56267">
        <ele>551.62158203125</ele>
        <time>2020-06-03T17:30:19.966Z</time>
      </trkpt>
      <trkpt lat="44.56091" lon="2.56209">
        <ele>539.92816162109</ele>
        <time>2020-06-03T17:30:20.695Z</time>
      </trkpt>
      <trkpt lat="44.56068" lon="2.5618">
        <ele>536.78729248047</ele>
        <time>2020-06-03T17:30:21.433Z</time>
      </trkpt>
      <trkpt lat="44.56005" lon="2.55874">
        <ele>532.86645507812</ele>
        <time>2020-06-03T17:30:22.236Z</time>
      </trkpt>
      <trkpt lat="44.56005" lon="2.55874">
        <ele>532.86529541016</ele>
        <time>2020-06-03T17:30:23.039Z</time>
      </trkpt>
      <trkpt lat="44.55968" lon="2.55771">
        <ele>529.93035888672</ele>
        <time>2020-06-03T17:30:23.866Z</time>
      </trkpt>
      <trkpt lat="44.55929" lon="2.55632">
        <ele>526.96887207031</ele>
        <time>2020-06-03T17:30:24.724Z</time>
      </trkpt>
      <trkpt lat="44.55902" lon="2.5561">
        <ele>526.51831054688</ele>
        <time>2020-06-03T17:30:25.590Z</time>
      </trkpt>
      <trkpt lat="44.55833" lon="2.55534">
        <ele>526.72723388672</ele>
        <time>2020-06-03T17:30:26.482Z</time>
      </trkpt>
      <trkpt lat="44.55821" lon="2.55501">
        <ele>527.75439453125</ele>
        <time>2020-06-03T17:30:27.381Z</time>
      </trkpt>
      <trkpt lat="44.5577" lon="2.55361">
        <ele>534.92266845703</ele>
        <time>2020-06-03T17:30:28.312Z</time>
      </trkpt>
      <trkpt lat="44.55711" lon="2.55321">
        <ele>537.35882568359</ele>
        <time>2020-06-03T17:30:29.262Z</time>
      </trkpt>
      <trkpt lat="44.556" lon="2.55303">
        <ele>534.04016113281</ele>
        <time>2020-06-03T17:30:30.244Z</time>
      </trkpt>
      <trkpt lat="44.55544" lon="2.55267">
        <ele>532.08239746094</ele>
        <time>2020-06-03T17:30:31.244Z</time>
      </trkpt>
      <trkpt lat="44.55374" lon="2.55126">
        <ele>523.83709716797</ele>
        <time>2020-06-03T17:30:32.300Z</time>
      </trkpt>
      <trkpt lat="44.55335" lon="2.55104">
        <ele>521.66168212891</ele>
        <time>2020-06-03T17:30:33.368Z</time>
      </trkpt>
      <trkpt lat="44.55303" lon="2.55104">
        <ele>520.10162353516</ele>
        <time>2020-06-03T17:30:34.445Z</time>
      </trkpt>
      <trkpt lat="44.55264" lon="2.55133">
        <ele>519.24310302734</ele>
        <time>2020-06-03T17:30:35.535Z</time>
      </trkpt>
      <trkpt lat="44.5525" lon="2.55152">
        <ele>518.73443603516</ele>
        <time>2020-06-03T17:30:36.631Z</time>
      </trkpt>
      <trkpt lat="44.55197" lon="2.55252">
        <ele>519.25708007812</ele>
        <time>2020-06-03T17:30:37.752Z</time>
      </trkpt>
      <trkpt lat="44.55197" lon="2.55252">
        <ele>519.25628662109</ele>
        <time>2020-06-03T17:30:38.873Z</time>
      </trkpt>
      <trkpt lat="44.5518" lon="2.55293">
        <ele>517.96905517578</ele>
        <time>2020-06-03T17:30:40.004Z</time>
      </trkpt>
      <trkpt lat="44.55137" lon="2.55398">
        <ele>517.32611083984</ele>
        <time>2020-06-03T17:30:41.159Z</time>
      </trkpt>
      <trkpt lat="44.55129" lon="2.55402">
        <ele>518.66485595703</ele>
        <time>2020-06-03T17:30:42.317Z</time>
      </trkpt>
      <trkpt lat="44.55122" lon="2.55427">
        <ele>516.20275878906</ele>
        <time>2020-06-03T17:30:43.480Z</time>
      </trkpt>
      <trkpt lat="44.55122" lon="2.55427">
        <ele>516.20825195312</ele>
        <time>2020-06-03T17:30:44.643Z</time>
      </trkpt>
      <trkpt lat="44.55122" lon="2.55427">
        <ele>516.21154785156</ele>
        <time>2020-06-03T17:30:45.806Z</time>
      </trkpt>
      <trkpt lat="44.55118" lon="2.55441">
        <ele>514.16796875</ele>
        <time>2020-06-03T17:30:46.972Z</time>
      </trkpt>
      <trkpt lat="44.55107" lon="2.55459">
        <ele>512.27502441406</ele>
        <time>2020-06-03T17:30:48.143Z</time>
      </trkpt>
      <trkpt lat="44.55082" lon="2.55459">
        <ele>516.60015869141</ele>
        <time>2020-06-03T17:30:49.322Z</time>
      </trkpt>
      <trkpt lat="44.55059" lon="2.55476">
        <ele>514.45861816406</ele>
        <time>2020-06-03T17:30:50.508Z</time>
      </trkpt>
      <trkpt lat="44.55026" lon="2.55488">
        <ele>514.29351806641</ele>
        <time>2020-06-03T17:30:51.704Z</time>
      </trkpt>
      <trkpt lat="44.54993" lon="2.55477">
        <ele>516.82122802734</ele>
        <time>2020-06-03T17:30:52.909Z</time>
      </trkpt>
      <trkpt lat="44.54931" lon="2.55436">
        <ele>530.70697021484</ele>
        <time>2020-06-03T17:30:54.134Z</time>
      </trkpt>
      <trkpt lat="44.54901" lon="2.55436">
        <ele>529.62567138672</ele>
        <time>2020-06-03T17:30:55.367Z</time>
      </trkpt>
      <trkpt lat="44.54872" lon="2.55448">
        <ele>525.05773925781</ele>
        <time>2020-06-03T17:30:56.609Z</time>
      </trkpt>
      <trkpt lat="44.54836" lon="2.5542">
        <ele>542.7685546875</ele>
        <time>2020-06-03T17:30:57.863Z</time>
      </trkpt>
      <trkpt lat="44.54796" lon="2.55421">
        <ele>550.9296875</ele>
        <time>2020-06-03T17:30:59.128Z</time>
      </trkpt>
      <trkpt lat="44.54774" lon="2.5548">
        <ele>539.92315673828</ele>
        <time>2020-06-03T17:31:00.407Z</time>
      </trkpt>
      <trkpt lat="44.54681" lon="2.55611">
        <ele>528.51373291016</ele>
        <time>2020-06-03T17:31:01.723Z</time>
      </trkpt>
      <trkpt lat="44.54638" lon="2.5564">
        <ele>517.60272216797</ele>
        <time>2020-06-03T17:31:03.053Z</time>
      </trkpt>
      <trkpt lat="44.54618" lon="2.55627">
        <ele>518.78698730469</ele>
        <time>2020-06-03T17:31:04.389Z</time>
      </trkpt>
      <trkpt lat="44.54571" lon="2.55577">
        <ele>506.53341674805</ele>
        <time>2020-06-03T17:31:05.742Z</time>
      </trkpt>
      <trkpt lat="44.54539" lon="2.55377">
        <ele>495.11404418945</ele>
        <time>2020-06-03T17:31:07.137Z</time>
      </trkpt>
      <trkpt lat="44.54502" lon="2.55265">
        <ele>481.09048461914</ele>
        <time>2020-06-03T17:31:08.558Z</time>
      </trkpt>
      <trkpt lat="44.54502" lon="2.5519">
        <ele>476.8537902832</ele>
        <time>2020-06-03T17:31:09.994Z</time>
      </trkpt>
      <trkpt lat="44.54508" lon="2.55176">
        <ele>477.71624755859</ele>
        <time>2020-06-03T17:31:11.433Z</time>
      </trkpt>
      <trkpt lat="44.54543" lon="2.5515">
        <ele>490.56219482422</ele>
        <time>2020-06-03T17:31:12.884Z</time>
      </trkpt>
      <trkpt lat="44.54559" lon="2.55091">
        <ele>488.10293579102</ele>
        <time>2020-06-03T17:31:14.347Z</time>
      </trkpt>
      <trkpt lat="44.54524" lon="2.54931">
        <ele>475.48056030273</ele>
        <time>2020-06-03T17:31:15.845Z</time>
      </trkpt>
      <trkpt lat="44.54504" lon="2.54902">
        <ele>472.76364135742</ele>
        <time>2020-06-03T17:31:17.351Z</time>
      </trkpt>
      <trkpt lat="44.54441" lon="2.54854">
        <ele>459.20690917969</ele>
        <time>2020-06-03T17:31:18.877Z</time>
      </trkpt>
      <trkpt lat="44.54428" lon="2.54824">
        <ele>456.59561157227</ele>
        <time>2020-06-03T17:31:20.410Z</time>
      </trkpt>
      <trkpt lat="44.54428" lon="2.54824">
        <ele>456.59237670898</ele>
        <time>2020-06-03T17:31:21.943Z</time>
      </trkpt>
      <trkpt lat="44.54402" lon="2.54603">
        <ele>466.56396484375</ele>
        <time>2020-06-03T17:31:23.522Z</time>
      </trkpt>
      <trkpt lat="44.54395" lon="2.54594">
        <ele>464.90341186523</ele>
        <time>2020-06-03T17:31:25.104Z</time>
      </trkpt>
      <trkpt lat="44.54388" lon="2.54556">
        <ele>468.29098510742</ele>
        <time>2020-06-03T17:31:26.694Z</time>
      </trkpt>
      <trkpt lat="44.54356" lon="2.54497">
        <ele>465.83819580078</ele>
        <time>2020-06-03T17:31:28.299Z</time>
      </trkpt>
      <trkpt lat="44.54351" lon="2.54468">
        <ele>465.84979248047</ele>
        <time>2020-06-03T17:31:29.910Z</time>
      </trkpt>
      <trkpt lat="44.54376" lon="2.54349">
        <ele>472.0583190918</ele>
        <time>2020-06-03T17:31:31.547Z</time>
      </trkpt>
      <trkpt lat="44.54377" lon="2.54285">
        <ele>472.11904907227</ele>
        <time>2020-06-03T17:31:33.197Z</time>
      </trkpt>
      <trkpt lat="44.5437" lon="2.54179">
        <ele>474.53176879883</ele>
        <time>2020-06-03T17:31:34.868Z</time>
      </trkpt>
      <trkpt lat="44.5436" lon="2.54101">
        <ele>481.75341796875</ele>
        <time>2020-06-03T17:31:36.556Z</time>
      </trkpt>
      <trkpt lat="44.5434" lon="2.54045">
        <ele>483.96746826172</ele>
        <time>2020-06-03T17:31:38.256Z</time>
      </trkpt>
      <trkpt lat="44.54278" lon="2.54005">
        <ele>469.54574584961</ele>
        <time>2020-06-03T17:31:39.976Z</time>
      </trkpt>
      <trkpt lat="44.54251" lon="2.53913">
        <ele>477.18576049805</ele>
        <time>2020-06-03T17:31:41.716Z</time>
      </trkpt>
      <trkpt lat="44.5422" lon="2.53876">
        <ele>474.96014404297</ele>
        <time>2020-06-03T17:31:43.468Z</time>
      </trkpt>
      <trkpt lat="44.54221" lon="2.5387">
        <ele>475.5104675293</ele>
        <time>2020-06-03T17:31:45.221Z</time>
      </trkpt>
      <trkpt lat="44.54221" lon="2.5387">
        <ele>475.51376342773</ele>
        <time>2020-06-03T17:31:46.974Z</time>
      </trkpt>
      <trkpt lat="44.54222" lon="2.53847">
        <ele>477.3801574707</ele>
        <time>2020-06-03T17:31:48.732Z</time>
      </trkpt>
      <trkpt lat="44.54222" lon="2.53847">
        <ele>477.37884521484</ele>
        <time>2020-06-03T17:31:50.490Z</time>
      </trkpt>
      <trkpt lat="44.54203" lon="2.53857">
        <ele>473.6716003418</ele>
        <time>2020-06-03T17:31:52.254Z</time>
      </trkpt>
      <trkpt lat="44.54155" lon="2.53839">
        <ele>474.64584350586</ele>
        <time>2020-06-03T17:31:54.032Z</time>
      </trkpt>
      <trkpt lat="44.54078" lon="2.53837">
        <ele>465.05676269531</ele>
        <time>2020-06-03T17:31:55.832Z</time>
      </trkpt>
      <trkpt lat="44.54036" lon="2.53761">
        <ele>469.34829711914</ele>
        <time>2020-06-03T17:31:57.652Z</time>
      </trkpt>
      <trkpt lat="44.53982" lon="2.53602">
        <ele>472.03393554688</ele>
        <time>2020-06-03T17:31:59.507Z</time>
      </trkpt>
      <trkpt lat="44.53939" lon="2.53525">
        <ele>464.18789672852</ele>
        <time>2020-06-03T17:32:01.382Z</time>
      </trkpt>
      <trkpt lat="44.53913" lon="2.53433">
        <ele>454.22357177734</ele>
        <time>2020-06-03T17:32:03.278Z</time>
      </trkpt>
      <trkpt lat="44.53904" lon="2.53296">
        <ele>455.65899658203</ele>
        <time>2020-06-03T17:32:05.202Z</time>
      </trkpt>
      <trkpt lat="44.53898" lon="2.53305">
        <ele>454.41647338867</ele>
        <time>2020-06-03T17:32:07.128Z</time>
      </trkpt>
      <trkpt lat="44.53898" lon="2.53305">
        <ele>454.41076660156</ele>
        <time>2020-06-03T17:32:09.054Z</time>
      </trkpt>
      <trkpt lat="44.53898" lon="2.53305">
        <ele>454.40927124023</ele>
        <time>2020-06-03T17:32:10.980Z</time>
      </trkpt>
      <trkpt lat="44.53904" lon="2.53296">
        <ele>455.65817260742</ele>
        <time>2020-06-03T17:32:12.908Z</time>
      </trkpt>
      <trkpt lat="44.53896" lon="2.53268">
        <ele>455.27529907227</ele>
        <time>2020-06-03T17:32:14.843Z</time>
      </trkpt>
      <trkpt lat="44.53879" lon="2.53246">
        <ele>454.97055053711</ele>
        <time>2020-06-03T17:32:16.784Z</time>
      </trkpt>
      <trkpt lat="44.53824" lon="2.53227">
        <ele>458.58172607422</ele>
        <time>2020-06-03T17:32:18.741Z</time>
      </trkpt>
      <trkpt lat="44.53786" lon="2.53188">
        <ele>463.84677124023</ele>
        <time>2020-06-03T17:32:20.712Z</time>
      </trkpt>
      <trkpt lat="44.53786" lon="2.53188">
        <ele>463.84655761719</ele>
        <time>2020-06-03T17:32:22.683Z</time>
      </trkpt>
      <trkpt lat="44.5376" lon="2.53162">
        <ele>464.03381347656</ele>
        <time>2020-06-03T17:32:24.663Z</time>
      </trkpt>
      <trkpt lat="44.53731" lon="2.5306">
        <ele>459.83233642578</ele>
        <time>2020-06-03T17:32:26.665Z</time>
      </trkpt>
      <trkpt lat="44.53715" lon="2.53035">
        <ele>458.68759155273</ele>
        <time>2020-06-03T17:32:28.674Z</time>
      </trkpt>
      <trkpt lat="44.53715" lon="2.53035">
        <ele>458.68667602539</ele>
        <time>2020-06-03T17:32:30.683Z</time>
      </trkpt>
      <trkpt lat="44.53642" lon="2.52927">
        <ele>449.17343139648</ele>
        <time>2020-06-03T17:32:32.723Z</time>
      </trkpt>
      <trkpt lat="44.53613" lon="2.52861">
        <ele>444.96508789062</ele>
        <time>2020-06-03T17:32:34.778Z</time>
      </trkpt>
      <trkpt lat="44.53626" lon="2.52796">
        <ele>442.53356933594</ele>
        <time>2020-06-03T17:32:36.847Z</time>
      </trkpt>
      <trkpt lat="44.53645" lon="2.52794">
        <ele>439.90759277344</ele>
        <time>2020-06-03T17:32:38.922Z</time>
      </trkpt>
      <trkpt lat="44.53675" lon="2.52864">
        <ele>443.82244873047</ele>
        <time>2020-06-03T17:32:41.013Z</time>
      </trkpt>
      <trkpt lat="44.53686" lon="2.52875">
        <ele>444.95523071289</ele>
        <time>2020-06-03T17:32:43.108Z</time>
      </trkpt>
      <trkpt lat="44.53671" lon="2.52813">
        <ele>437.2043762207</ele>
        <time>2020-06-03T17:32:45.217Z</time>
      </trkpt>
      <trkpt lat="44.53675" lon="2.52762">
        <ele>426.97616577148</ele>
        <time>2020-06-03T17:32:47.336Z</time>
      </trkpt>
      <trkpt lat="44.53669" lon="2.52749">
        <ele>426.37799072266</ele>
        <time>2020-06-03T17:32:49.459Z</time>
      </trkpt>
      <trkpt lat="44.53644" lon="2.52733">
        <ele>431.4626159668</ele>
        <time>2020-06-03T17:32:51.589Z</time>
      </trkpt>
      <trkpt lat="44.53633" lon="2.52672">
        <ele>425.19104003906</ele>
        <time>2020-06-03T17:32:53.732Z</time>
      </trkpt>
      <trkpt lat="44.53633" lon="2.52624">
        <ele>415.04983520508</ele>
        <time>2020-06-03T17:32:55.885Z</time>
      </trkpt>
      <trkpt lat="44.53648" lon="2.52624">
        <ele>409.64340209961</ele>
        <time>2020-06-03T17:32:58.042Z</time>
      </trkpt>
      <trkpt lat="44.5366" lon="2.52652">
        <ele>411.41979980469</ele>
        <time>2020-06-03T17:33:00.206Z</time>
      </trkpt>
      <trkpt lat="44.53664" lon="2.52625">
        <ele>404.14630126953</ele>
        <time>2020-06-03T17:33:02.375Z</time>
      </trkpt>
      <trkpt lat="44.53669" lon="2.52624">
        <ele>402.43426513672</ele>
        <time>2020-06-03T17:33:04.546Z</time>
      </trkpt>
      <trkpt lat="44.53688" lon="2.52662">
        <ele>403.46463012695</ele>
        <time>2020-06-03T17:33:06.726Z</time>
      </trkpt>
      <trkpt lat="44.53723" lon="2.52697">
        <ele>396.91613769531</ele>
        <time>2020-06-03T17:33:08.919Z</time>
      </trkpt>
      <trkpt lat="44.53753" lon="2.52662">
        <ele>378.705078125</ele>
        <time>2020-06-03T17:33:11.123Z</time>
      </trkpt>
      <trkpt lat="44.5375" lon="2.52644">
        <ele>376.220703125</ele>
        <time>2020-06-03T17:33:13.331Z</time>
      </trkpt>
      <trkpt lat="44.53757" lon="2.52627">
        <ele>370.40585327148</ele>
        <time>2020-06-03T17:33:15.543Z</time>
      </trkpt>
      <trkpt lat="44.53777" lon="2.52617">
        <ele>360.97033691406</ele>
        <time>2020-06-03T17:33:17.761Z</time>
      </trkpt>
      <trkpt lat="44.53784" lon="2.52604">
        <ele>355.87945556641</ele>
        <time>2020-06-03T17:33:19.982Z</time>
      </trkpt>
      <trkpt lat="44.53784" lon="2.52586">
        <ele>352.37814331055</ele>
        <time>2020-06-03T17:33:22.207Z</time>
      </trkpt>
      <trkpt lat="44.53753" lon="2.52545">
        <ele>355.06597900391</ele>
        <time>2020-06-03T17:33:24.444Z</time>
      </trkpt>
      <trkpt lat="44.53677" lon="2.52517">
        <ele>376.57238769531</ele>
        <time>2020-06-03T17:33:26.704Z</time>
      </trkpt>
      <trkpt lat="44.53664" lon="2.52489">
        <ele>375.26519775391</ele>
        <time>2020-06-03T17:33:28.970Z</time>
      </trkpt>
      <trkpt lat="44.53672" lon="2.52455">
        <ele>365.37826538086</ele>
        <time>2020-06-03T17:33:31.244Z</time>
      </trkpt>
      <trkpt lat="44.53658" lon="2.52431">
        <ele>366.26647949219</ele>
        <time>2020-06-03T17:33:33.524Z</time>
      </trkpt>
      <trkpt lat="44.53656" lon="2.52413">
        <ele>363.80401611328</ele>
        <time>2020-06-03T17:33:35.808Z</time>
      </trkpt>
      <trkpt lat="44.53685" lon="2.52414">
        <ele>353.94372558594</ele>
        <time>2020-06-03T17:33:38.100Z</time>
      </trkpt>
      <trkpt lat="44.53773" lon="2.52478">
        <ele>342.69567871094</ele>
        <time>2020-06-03T17:33:40.420Z</time>
      </trkpt>
      <trkpt lat="44.53769" lon="2.52424">
        <ele>341.73025512695</ele>
        <time>2020-06-03T17:33:42.752Z</time>
      </trkpt>
      <trkpt lat="44.53783" lon="2.5237">
        <ele>341.08428955078</ele>
        <time>2020-06-03T17:33:45.095Z</time>
      </trkpt>
      <trkpt lat="44.53781" lon="2.52275">
        <ele>342.34799194336</ele>
        <time>2020-06-03T17:33:47.458Z</time>
      </trkpt>
      <trkpt lat="44.5379" lon="2.5224">
        <ele>345.03927612305</ele>
        <time>2020-06-03T17:33:49.828Z</time>
      </trkpt>
      <trkpt lat="44.53787" lon="2.52195">
        <ele>348.16729736328</ele>
        <time>2020-06-03T17:33:52.207Z</time>
      </trkpt>
      <trkpt lat="44.53795" lon="2.521">
        <ele>354.70855712891</ele>
        <time>2020-06-03T17:33:54.606Z</time>
      </trkpt>
      <trkpt lat="44.53791" lon="2.5205">
        <ele>357.20709228516</ele>
        <time>2020-06-03T17:33:57.015Z</time>
      </trkpt>
      <trkpt lat="44.53776" lon="2.52023">
        <ele>357.16650390625</ele>
        <time>2020-06-03T17:33:59.431Z</time>
      </trkpt>
      <trkpt lat="44.53732" lon="2.51974">
        <ele>359.07666015625</ele>
        <time>2020-06-03T17:34:01.863Z</time>
      </trkpt>
      <trkpt lat="44.5372" lon="2.51942">
        <ele>364.22564697266</ele>
        <time>2020-06-03T17:34:04.303Z</time>
      </trkpt>
      <trkpt lat="44.53724" lon="2.51908">
        <ele>370.54125976562</ele>
        <time>2020-06-03T17:34:06.750Z</time>
      </trkpt>
      <trkpt lat="44.53739" lon="2.51874">
        <ele>379.02420043945</ele>
        <time>2020-06-03T17:34:09.205Z</time>
      </trkpt>
      <trkpt lat="44.53774" lon="2.51878">
        <ele>381.04788208008</ele>
        <time>2020-06-03T17:34:11.670Z</time>
      </trkpt>
      <trkpt lat="44.53824" lon="2.51908">
        <ele>380.60638427734</ele>
        <time>2020-06-03T17:34:14.150Z</time>
      </trkpt>
      <trkpt lat="44.53855" lon="2.51915">
        <ele>383.56704711914</ele>
        <time>2020-06-03T17:34:16.639Z</time>
      </trkpt>
      <trkpt lat="44.53884" lon="2.51871">
        <ele>403.53726196289</ele>
        <time>2020-06-03T17:34:19.141Z</time>
      </trkpt>
      <trkpt lat="44.53834" lon="2.51882">
        <ele>388.69152832031</ele>
        <time>2020-06-03T17:34:21.657Z</time>
      </trkpt>
      <trkpt lat="44.5382" lon="2.5187">
        <ele>389.39825439453</ele>
        <time>2020-06-03T17:34:24.178Z</time>
      </trkpt>
      <trkpt lat="44.53791" lon="2.51809">
        <ele>401.29486083984</ele>
        <time>2020-06-03T17:34:26.714Z</time>
      </trkpt>
      <trkpt lat="44.53793" lon="2.5177">
        <ele>412.41665649414</ele>
        <time>2020-06-03T17:34:29.258Z</time>
      </trkpt>
      <trkpt lat="44.53798" lon="2.51765">
        <ele>415.05551147461</ele>
        <time>2020-06-03T17:34:31.804Z</time>
      </trkpt>
      <trkpt lat="44.53818" lon="2.51792">
        <ele>411.82452392578</ele>
        <time>2020-06-03T17:34:34.358Z</time>
      </trkpt>
      <trkpt lat="44.53822" lon="2.51783">
        <ele>415.36361694336</ele>
        <time>2020-06-03T17:34:36.914Z</time>
      </trkpt>
      <trkpt lat="44.53815" lon="2.51764">
        <ele>419.63726806641</ele>
        <time>2020-06-03T17:34:39.474Z</time>
      </trkpt>
      <trkpt lat="44.53748" lon="2.51674">
        <ele>428.03546142578</ele>
        <time>2020-06-03T17:34:42.061Z</time>
      </trkpt>
      <trkpt lat="44.53735" lon="2.51627">
        <ele>433.94668579102</ele>
        <time>2020-06-03T17:34:44.658Z</time>
      </trkpt>
      <trkpt lat="44.53679" lon="2.51546">
        <ele>432.45758056641</ele>
        <time>2020-06-03T17:34:47.278Z</time>
      </trkpt>
      <trkpt lat="44.5366" lon="2.51495">
        <ele>435.0758972168</ele>
        <time>2020-06-03T17:34:49.910Z</time>
      </trkpt>
      <trkpt lat="44.53665" lon="2.51438">
        <ele>442.3254699707</ele>
        <time>2020-06-03T17:34:52.553Z</time>
      </trkpt>
      <trkpt lat="44.53686" lon="2.51377">
        <ele>455.8542175293</ele>
        <time>2020-06-03T17:34:55.210Z</time>
      </trkpt>
      <trkpt lat="44.53644" lon="2.51304">
        <ele>454.00793457031</ele>
        <time>2020-06-03T17:34:57.886Z</time>
      </trkpt>
      <trkpt lat="44.53635" lon="2.51255">
        <ele>459.8518371582</ele>
        <time>2020-06-03T17:35:00.573Z</time>
      </trkpt>
      <trkpt lat="44.53633" lon="2.51122">
        <ele>482.36877441406</ele>
        <time>2020-06-03T17:35:03.287Z</time>
      </trkpt>
      <trkpt lat="44.53625" lon="2.51094">
        <ele>483.70748901367</ele>
        <time>2020-06-03T17:35:06.007Z</time>
      </trkpt>
      <trkpt lat="44.53609" lon="2.51073">
        <ele>482.51620483398</ele>
        <time>2020-06-03T17:35:08.733Z</time>
      </trkpt>
      <trkpt lat="44.53586" lon="2.51065">
        <ele>483.88641357422</ele>
        <time>2020-06-03T17:35:11.466Z</time>
      </trkpt>
      <trkpt lat="44.53566" lon="2.51063">
        <ele>486.19058227539</ele>
        <time>2020-06-03T17:35:14.205Z</time>
      </trkpt>
      <trkpt lat="44.53483" lon="2.51045">
        <ele>489.86163330078</ele>
        <time>2020-06-03T17:35:16.968Z</time>
      </trkpt>
      <trkpt lat="44.53454" lon="2.51025">
        <ele>487.59609985352</ele>
        <time>2020-06-03T17:35:19.740Z</time>
      </trkpt>
      <trkpt lat="44.53359" lon="2.50907">
        <ele>474.34545898438</ele>
        <time>2020-06-03T17:35:22.548Z</time>
      </trkpt>
      <trkpt lat="44.53346" lon="2.50895">
        <ele>471.859375</ele>
        <time>2020-06-03T17:35:25.361Z</time>
      </trkpt>
      <trkpt lat="44.53264" lon="2.50765">
        <ele>456.86715698242</ele>
        <time>2020-06-03T17:35:28.209Z</time>
      </trkpt>
      <trkpt lat="44.53264" lon="2.50765">
        <ele>456.87615966797</ele>
        <time>2020-06-03T17:35:31.057Z</time>
      </trkpt>
      <trkpt lat="44.53264" lon="2.50765">
        <ele>456.87445068359</ele>
        <time>2020-06-03T17:35:33.905Z</time>
      </trkpt>
      <trkpt lat="44.53251" lon="2.50746">
        <ele>454.24963378906</ele>
        <time>2020-06-03T17:35:36.758Z</time>
      </trkpt>
      <trkpt lat="44.53235" lon="2.50677">
        <ele>453.63662719727</ele>
        <time>2020-06-03T17:35:39.626Z</time>
      </trkpt>
      <trkpt lat="44.53219" lon="2.50649">
        <ele>451.57061767578</ele>
        <time>2020-06-03T17:35:42.502Z</time>
      </trkpt>
      <trkpt lat="44.53201" lon="2.50634">
        <ele>448.19802856445</ele>
        <time>2020-06-03T17:35:45.384Z</time>
      </trkpt>
      <trkpt lat="44.5317" lon="2.50587">
        <ele>449.32806396484</ele>
        <time>2020-06-03T17:35:48.279Z</time>
      </trkpt>
      <trkpt lat="44.53131" lon="2.50569">
        <ele>446.02783203125</ele>
        <time>2020-06-03T17:35:51.185Z</time>
      </trkpt>
      <trkpt lat="44.53077" lon="2.50562">
        <ele>441.83792114258</ele>
        <time>2020-06-03T17:35:54.107Z</time>
      </trkpt>
      <trkpt lat="44.53062" lon="2.50549">
        <ele>440.9626159668</ele>
        <time>2020-06-03T17:35:57.034Z</time>
      </trkpt>
      <trkpt lat="44.52977" lon="2.50417">
        <ele>433.72778320312</ele>
        <time>2020-06-03T17:35:59.997Z</time>
      </trkpt>
      <trkpt lat="44.52941" lon="2.50445">
        <ele>426.26760864258</ele>
        <time>2020-06-03T17:36:02.972Z</time>
      </trkpt>
      <trkpt lat="44.52922" lon="2.50451">
        <ele>421.7751159668</ele>
        <time>2020-06-03T17:36:05.952Z</time>
      </trkpt>
      <trkpt lat="44.52909" lon="2.50437">
        <ele>419.83139038086</ele>
        <time>2020-06-03T17:36:08.937Z</time>
      </trkpt>
      <trkpt lat="44.52912" lon="2.50376">
        <ele>421.62753295898</ele>
        <time>2020-06-03T17:36:11.935Z</time>
      </trkpt>
      <trkpt lat="44.52908" lon="2.50365">
        <ele>420.4690246582</ele>
        <time>2020-06-03T17:36:14.935Z</time>
      </trkpt>
      <trkpt lat="44.52884" lon="2.50361">
        <ele>415.70449829102</ele>
        <time>2020-06-03T17:36:17.942Z</time>
      </trkpt>
      <trkpt lat="44.52857" lon="2.50341">
        <ele>410.14392089844</ele>
        <time>2020-06-03T17:36:20.958Z</time>
      </trkpt>
      <trkpt lat="44.52791" lon="2.50286">
        <ele>396.2253112793</ele>
        <time>2020-06-03T17:36:23.996Z</time>
      </trkpt>
      <trkpt lat="44.52772" lon="2.50278">
        <ele>393.35845947266</ele>
        <time>2020-06-03T17:36:27.040Z</time>
      </trkpt>
      <trkpt lat="44.52751" lon="2.50278">
        <ele>391.15725708008</ele>
        <time>2020-06-03T17:36:30.089Z</time>
      </trkpt>
      <trkpt lat="44.52738" lon="2.50293">
        <ele>390.18786621094</ele>
        <time>2020-06-03T17:36:33.143Z</time>
      </trkpt>
      <trkpt lat="44.52682" lon="2.50314">
        <ele>385.95639038086</ele>
        <time>2020-06-03T17:36:36.214Z</time>
      </trkpt>
      <trkpt lat="44.52671" lon="2.50286">
        <ele>384.14144897461</ele>
        <time>2020-06-03T17:36:39.292Z</time>
      </trkpt>
      <trkpt lat="44.52661" lon="2.50277">
        <ele>383.1374206543</ele>
        <time>2020-06-03T17:36:42.373Z</time>
      </trkpt>
      <trkpt lat="44.52583" lon="2.5026">
        <ele>377.59515380859</ele>
        <time>2020-06-03T17:36:45.477Z</time>
      </trkpt>
      <trkpt lat="44.52583" lon="2.5026">
        <ele>377.58798217773</ele>
        <time>2020-06-03T17:36:48.581Z</time>
      </trkpt>
      <trkpt lat="44.52583" lon="2.5026">
        <ele>377.58758544922</ele>
        <time>2020-06-03T17:36:51.685Z</time>
      </trkpt>
      <trkpt lat="44.52583" lon="2.5026">
        <ele>377.58798217773</ele>
        <time>2020-06-03T17:36:54.789Z</time>
      </trkpt>
      <trkpt lat="44.52596" lon="2.50482">
        <ele>369.00228881836</ele>
        <time>2020-06-03T17:36:57.938Z</time>
      </trkpt>
      <trkpt lat="44.52539" lon="2.50468">
        <ele>363.93206787109</ele>
        <time>2020-06-03T17:37:01.103Z</time>
      </trkpt>
      <trkpt lat="44.52539" lon="2.50468">
        <ele>363.92050170898</ele>
        <time>2020-06-03T17:37:04.268Z</time>
      </trkpt>
      <trkpt lat="44.52539" lon="2.50468">
        <ele>363.91989135742</ele>
        <time>2020-06-03T17:37:07.433Z</time>
      </trkpt>
      <trkpt lat="44.52492" lon="2.50456">
        <ele>358.60635375977</ele>
        <time>2020-06-03T17:37:10.612Z</time>
      </trkpt>
      <trkpt lat="44.52456" lon="2.50456">
        <ele>354.33612060547</ele>
        <time>2020-06-03T17:37:13.801Z</time>
      </trkpt>
      <trkpt lat="44.52371" lon="2.50472">
        <ele>345.6513671875</ele>
        <time>2020-06-03T17:37:17.015Z</time>
      </trkpt>
      <trkpt lat="44.52349" lon="2.50484">
        <ele>343.04205322266</ele>
        <time>2020-06-03T17:37:20.236Z</time>
      </trkpt>
      <trkpt lat="44.52325" lon="2.50517">
        <ele>339.6706237793</ele>
        <time>2020-06-03T17:37:23.466Z</time>
      </trkpt>
      <trkpt lat="44.52297" lon="2.50571">
        <ele>336.82284545898</ele>
        <time>2020-06-03T17:37:26.710Z</time>
      </trkpt>
      <trkpt lat="44.52236" lon="2.50657">
        <ele>325.89624023438</ele>
        <time>2020-06-03T17:37:29.979Z</time>
      </trkpt>
      <trkpt lat="44.52176" lon="2.50761">
        <ele>318.81237792969</ele>
        <time>2020-06-03T17:37:33.275Z</time>
      </trkpt>
      <trkpt lat="44.52171" lon="2.5079">
        <ele>316.8557434082</ele>
        <time>2020-06-03T17:37:36.577Z</time>
      </trkpt>
      <trkpt lat="44.52174" lon="2.50832">
        <ele>314.64624023438</ele>
        <time>2020-06-03T17:37:39.888Z</time>
      </trkpt>
      <trkpt lat="44.52184" lon="2.50876">
        <ele>309.95715332031</ele>
        <time>2020-06-03T17:37:43.208Z</time>
      </trkpt>
      <trkpt lat="44.52184" lon="2.50876">
        <ele>309.95666503906</ele>
        <time>2020-06-03T17:37:46.528Z</time>
      </trkpt>
      <trkpt lat="44.52211" lon="2.50951">
        <ele>303.17129516602</ele>
        <time>2020-06-03T17:37:49.865Z</time>
      </trkpt>
      <trkpt lat="44.52209" lon="2.50983">
        <ele>300.78988647461</ele>
        <time>2020-06-03T17:37:53.209Z</time>
      </trkpt>
      <trkpt lat="44.52198" lon="2.51008">
        <ele>298.4592590332</ele>
        <time>2020-06-03T17:37:56.559Z</time>
      </trkpt>
      <trkpt lat="44.52184" lon="2.51015">
        <ele>297.50668334961</ele>
        <time>2020-06-03T17:37:59.913Z</time>
      </trkpt>
      <trkpt lat="44.52109" lon="2.51008">
        <ele>294.40704345703</ele>
        <time>2020-06-03T17:38:03.289Z</time>
      </trkpt>
      <trkpt lat="44.52042" lon="2.51063">
        <ele>283.44079589844</ele>
        <time>2020-06-03T17:38:06.687Z</time>
      </trkpt>
      <trkpt lat="44.52016" lon="2.51076">
        <ele>280.39770507812</ele>
        <time>2020-06-03T17:38:10.093Z</time>
      </trkpt>
      <trkpt lat="44.51972" lon="2.51078">
        <ele>277.63012695312</ele>
        <time>2020-06-03T17:38:13.511Z</time>
      </trkpt>
      <trkpt lat="44.51954" lon="2.51107">
        <ele>275.27920532227</ele>
        <time>2020-06-03T17:38:16.937Z</time>
      </trkpt>
      <trkpt lat="44.52023" lon="2.51144">
        <ele>276.7253112793</ele>
        <time>2020-06-03T17:38:20.384Z</time>
      </trkpt>
      <trkpt lat="44.52023" lon="2.51144">
        <ele>276.72903442383</ele>
        <time>2020-06-03T17:38:23.831Z</time>
      </trkpt>
      <trkpt lat="44.52007" lon="2.51255">
        <ele>277.80526733398</ele>
        <time>2020-06-03T17:38:27.301Z</time>
      </trkpt>
      <trkpt lat="44.51988" lon="2.51264">
        <ele>279.20886230469</ele>
        <time>2020-06-03T17:38:30.777Z</time>
      </trkpt>
      <trkpt lat="44.51962" lon="2.51262">
        <ele>280.76791381836</ele>
        <time>2020-06-03T17:38:34.261Z</time>
      </trkpt>
      <trkpt lat="44.51917" lon="2.51232">
        <ele>280.74142456055</ele>
        <time>2020-06-03T17:38:37.759Z</time>
      </trkpt>
      <trkpt lat="44.51803" lon="2.51217">
        <ele>292.65725708008</ele>
        <time>2020-06-03T17:38:41.289Z</time>
      </trkpt>
      <trkpt lat="44.51777" lon="2.51205">
        <ele>294.07141113281</ele>
        <time>2020-06-03T17:38:44.827Z</time>
      </trkpt>
      <trkpt lat="44.51711" lon="2.51141">
        <ele>286.4231262207</ele>
        <time>2020-06-03T17:38:48.388Z</time>
      </trkpt>
      <trkpt lat="44.51691" lon="2.51145">
        <ele>288.49349975586</ele>
        <time>2020-06-03T17:38:51.955Z</time>
      </trkpt>
      <trkpt lat="44.51653" lon="2.51291">
        <ele>299.56448364258</ele>
        <time>2020-06-03T17:38:55.554Z</time>
      </trkpt>
      <trkpt lat="44.51649" lon="2.51333">
        <ele>298.79415893555</ele>
        <time>2020-06-03T17:38:59.161Z</time>
      </trkpt>
      <trkpt lat="44.51648" lon="2.51402">
        <ele>304.45883178711</ele>
        <time>2020-06-03T17:39:02.783Z</time>
      </trkpt>
      <trkpt lat="44.51642" lon="2.51453">
        <ele>305.29934692383</ele>
        <time>2020-06-03T17:39:06.415Z</time>
      </trkpt>
      <trkpt lat="44.51626" lon="2.51465">
        <ele>307.33319091797</ele>
        <time>2020-06-03T17:39:10.052Z</time>
      </trkpt>
      <trkpt lat="44.5158" lon="2.5147">
        <ele>307.99670410156</ele>
        <time>2020-06-03T17:39:13.702Z</time>
      </trkpt>
      <trkpt lat="44.51564" lon="2.51483">
        <ele>310.5068359375</ele>
        <time>2020-06-03T17:39:17.358Z</time>
      </trkpt>
      <trkpt lat="44.51613" lon="2.51481">
        <ele>309.90097045898</ele>
        <time>2020-06-03T17:39:21.028Z</time>
      </trkpt>
      <trkpt lat="44.51613" lon="2.51481">
        <ele>309.90176391602</ele>
        <time>2020-06-03T17:39:24.698Z</time>
      </trkpt>
      <trkpt lat="44.51613" lon="2.51481">
        <ele>309.90167236328</ele>
        <time>2020-06-03T17:39:28.368Z</time>
      </trkpt>
      <trkpt lat="44.51613" lon="2.51481">
        <ele>309.90176391602</ele>
        <time>2020-06-03T17:39:32.038Z</time>
      </trkpt>
      <trkpt lat="44.51564" lon="2.51483">
        <ele>310.50671386719</ele>
        <time>2020-06-03T17:39:35.722Z</time>
      </trkpt>
      <trkpt lat="44.51401" lon="2.51555">
        <ele>313.228515625</ele>
        <time>2020-06-03T17:39:39.455Z</time>
      </trkpt>
      <trkpt lat="44.51396" lon="2.51557">
        <ele>313.43447875977</ele>
        <time>2020-06-03T17:39:43.189Z</time>
      </trkpt>
      <trkpt lat="44.51347" lon="2.51582">
        <ele>315.56838989258</ele>
        <time>2020-06-03T17:39:46.938Z</time>
      </trkpt>
      <trkpt lat="44.51277" lon="2.51649">
        <ele>320.52212524414</ele>
        <time>2020-06-03T17:39:50.711Z</time>
      </trkpt>
      <trkpt lat="44.51261" lon="2.51685">
        <ele>322.45611572266</ele>
        <time>2020-06-03T17:39:54.493Z</time>
      </trkpt>
      <trkpt lat="44.5124" lon="2.5177">
        <ele>327.18557739258</ele>
        <time>2020-06-03T17:39:58.294Z</time>
      </trkpt>
      <trkpt lat="44.5124" lon="2.5177">
        <ele>327.18579101562</ele>
        <time>2020-06-03T17:40:02.095Z</time>
      </trkpt>
      <trkpt lat="44.512" lon="2.51921">
        <ele>335.06283569336</ele>
        <time>2020-06-03T17:40:05.928Z</time>
      </trkpt>
      <trkpt lat="44.51149" lon="2.52021">
        <ele>339.75653076172</ele>
        <time>2020-06-03T17:40:09.786Z</time>
      </trkpt>
      <trkpt lat="44.51136" lon="2.52079">
        <ele>340.26220703125</ele>
        <time>2020-06-03T17:40:13.657Z</time>
      </trkpt>
      <trkpt lat="44.51141" lon="2.52109">
        <ele>340.29220581055</ele>
        <time>2020-06-03T17:40:17.534Z</time>
      </trkpt>
      <trkpt lat="44.51174" lon="2.52151">
        <ele>338.00088500977</ele>
        <time>2020-06-03T17:40:21.424Z</time>
      </trkpt>
      <trkpt lat="44.51182" lon="2.52173">
        <ele>337.89999389648</ele>
        <time>2020-06-03T17:40:25.319Z</time>
      </trkpt>
      <trkpt lat="44.51184" lon="2.52191">
        <ele>338.81393432617</ele>
        <time>2020-06-03T17:40:29.218Z</time>
      </trkpt>
      <trkpt lat="44.51164" lon="2.52297">
        <ele>345.52108764648</ele>
        <time>2020-06-03T17:40:33.139Z</time>
      </trkpt>
      <trkpt lat="44.51123" lon="2.52432">
        <ele>346.24673461914</ele>
        <time>2020-06-03T17:40:37.090Z</time>
      </trkpt>
      <trkpt lat="44.51123" lon="2.52484">
        <ele>342.53948974609</ele>
        <time>2020-06-03T17:40:41.052Z</time>
      </trkpt>
      <trkpt lat="44.51115" lon="2.52583">
        <ele>336.24337768555</ele>
        <time>2020-06-03T17:40:45.034Z</time>
      </trkpt>
      <trkpt lat="44.51115" lon="2.52583">
        <ele>336.25375366211</ele>
        <time>2020-06-03T17:40:49.016Z</time>
      </trkpt>
      <trkpt lat="44.51115" lon="2.52583">
        <ele>336.25735473633</ele>
        <time>2020-06-03T17:40:52.998Z</time>
      </trkpt>
      <trkpt lat="44.51108" lon="2.52672">
        <ele>335.44732666016</ele>
        <time>2020-06-03T17:40:56.998Z</time>
      </trkpt>
      <trkpt lat="44.51118" lon="2.5272">
        <ele>333.69842529297</ele>
        <time>2020-06-03T17:41:01.009Z</time>
      </trkpt>
      <trkpt lat="44.51151" lon="2.52757">
        <ele>331.94140625</ele>
        <time>2020-06-03T17:41:05.032Z</time>
      </trkpt>
      <trkpt lat="44.51198" lon="2.52763">
        <ele>330.61553955078</ele>
        <time>2020-06-03T17:41:09.068Z</time>
      </trkpt>
      <trkpt lat="44.51272" lon="2.52796">
        <ele>324.90701293945</ele>
        <time>2020-06-03T17:41:13.127Z</time>
      </trkpt>
      <trkpt lat="44.51287" lon="2.52838">
        <ele>320.96380615234</ele>
        <time>2020-06-03T17:41:17.195Z</time>
      </trkpt>
      <trkpt lat="44.513" lon="2.52853">
        <ele>320.75784301758</ele>
        <time>2020-06-03T17:41:21.268Z</time>
      </trkpt>
      <trkpt lat="44.51332" lon="2.52864">
        <ele>319.61987304688</ele>
        <time>2020-06-03T17:41:25.350Z</time>
      </trkpt>
      <trkpt lat="44.51366" lon="2.52897">
        <ele>318.78317260742</ele>
        <time>2020-06-03T17:41:29.444Z</time>
      </trkpt>
      <trkpt lat="44.51397" lon="2.52922">
        <ele>319.73611450195</ele>
        <time>2020-06-03T17:41:33.549Z</time>
      </trkpt>
      <trkpt lat="44.51414" lon="2.52945">
        <ele>321.92440795898</ele>
        <time>2020-06-03T17:41:37.660Z</time>
      </trkpt>
      <trkpt lat="44.51421" lon="2.52985">
        <ele>325.17083740234</ele>
        <time>2020-06-03T17:41:41.780Z</time>
      </trkpt>
      <trkpt lat="44.51431" lon="2.52987">
        <ele>325.55700683594</ele>
        <time>2020-06-03T17:41:45.903Z</time>
      </trkpt>
      <trkpt lat="44.51429" lon="2.53131">
        <ele>340.25637817383</ele>
        <time>2020-06-03T17:41:50.055Z</time>
      </trkpt>
      <trkpt lat="44.51457" lon="2.5313">
        <ele>340.82983398438</ele>
        <time>2020-06-03T17:41:54.215Z</time>
      </trkpt>
      <trkpt lat="44.51513" lon="2.53178">
        <ele>347.64443969727</ele>
        <time>2020-06-03T17:41:58.394Z</time>
      </trkpt>
      <trkpt lat="44.51486" lon="2.5325">
        <ele>349.64535522461</ele>
        <time>2020-06-03T17:42:02.589Z</time>
      </trkpt>
      <trkpt lat="44.51508" lon="2.53266">
        <ele>348.38232421875</ele>
        <time>2020-06-03T17:42:06.791Z</time>
      </trkpt>
      <trkpt lat="44.51508" lon="2.53266">
        <ele>348.37417602539</ele>
        <time>2020-06-03T17:42:10.993Z</time>
      </trkpt>
      <trkpt lat="44.51508" lon="2.53266">
        <ele>348.37478637695</ele>
        <time>2020-06-03T17:42:15.195Z</time>
      </trkpt>
      <trkpt lat="44.5159" lon="2.53325">
        <ele>344.63900756836</ele>
        <time>2020-06-03T17:42:19.424Z</time>
      </trkpt>
      <trkpt lat="44.51645" lon="2.53407">
        <ele>334.66177368164</ele>
        <time>2020-06-03T17:42:23.676Z</time>
      </trkpt>
      <trkpt lat="44.51659" lon="2.53397">
        <ele>334.41720581055</ele>
        <time>2020-06-03T17:42:27.932Z</time>
      </trkpt>
      <trkpt lat="44.51681" lon="2.53342">
        <ele>336.53936767578</ele>
        <time>2020-06-03T17:42:32.201Z</time>
      </trkpt>
      <trkpt lat="44.51688" lon="2.53292">
        <ele>335.68698120117</ele>
        <time>2020-06-03T17:42:36.480Z</time>
      </trkpt>
      <trkpt lat="44.51694" lon="2.53279">
        <ele>334.06506347656</ele>
        <time>2020-06-03T17:42:40.762Z</time>
      </trkpt>
      <trkpt lat="44.51703" lon="2.5328">
        <ele>332.49252319336</ele>
        <time>2020-06-03T17:42:45.047Z</time>
      </trkpt>
      <trkpt lat="44.51706" lon="2.53301">
        <ele>332.60836791992</ele>
        <time>2020-06-03T17:42:49.336Z</time>
      </trkpt>
      <trkpt lat="44.51691" lon="2.53405">
        <ele>330.82397460938</ele>
        <time>2020-06-03T17:42:53.647Z</time>
      </trkpt>
      <trkpt lat="44.5167" lon="2.53472">
        <ele>325.60598754883</ele>
        <time>2020-06-03T17:42:57.973Z</time>
      </trkpt>
      <trkpt lat="44.51668" lon="2.53534">
        <ele>321.95779418945</ele>
        <time>2020-06-03T17:43:02.312Z</time>
      </trkpt>
      <trkpt lat="44.51715" lon="2.53547">
        <ele>320.69931030273</ele>
        <time>2020-06-03T17:43:06.665Z</time>
      </trkpt>
      <trkpt lat="44.51746" lon="2.53628">
        <ele>325.85458374023</ele>
        <time>2020-06-03T17:43:11.036Z</time>
      </trkpt>
      <trkpt lat="44.51755" lon="2.53626">
        <ele>326.17639160156</ele>
        <time>2020-06-03T17:43:15.410Z</time>
      </trkpt>
      <trkpt lat="44.51779" lon="2.53477">
        <ele>323.31695556641</ele>
        <time>2020-06-03T17:43:19.815Z</time>
      </trkpt>
      <trkpt lat="44.51821" lon="2.53397">
        <ele>331.66027832031</ele>
        <time>2020-06-03T17:43:24.240Z</time>
      </trkpt>
      <trkpt lat="44.51835" lon="2.53386">
        <ele>334.69818115234</ele>
        <time>2020-06-03T17:43:28.670Z</time>
      </trkpt>
      <trkpt lat="44.51851" lon="2.53389">
        <ele>339.28332519531</ele>
        <time>2020-06-03T17:43:33.105Z</time>
      </trkpt>
      <trkpt lat="44.51956" lon="2.53454">
        <ele>363.18447875977</ele>
        <time>2020-06-03T17:43:37.572Z</time>
      </trkpt>
      <trkpt lat="44.52031" lon="2.53519">
        <ele>368.6975402832</ele>
        <time>2020-06-03T17:43:42.065Z</time>
      </trkpt>
      <trkpt lat="44.52117" lon="2.5358">
        <ele>377.96676635742</ele>
        <time>2020-06-03T17:43:46.585Z</time>
      </trkpt>
      <trkpt lat="44.52099" lon="2.53593">
        <ele>375.36419677734</ele>
        <time>2020-06-03T17:43:51.111Z</time>
      </trkpt>
      <trkpt lat="44.52096" lon="2.53607">
        <ele>373.12438964844</ele>
        <time>2020-06-03T17:43:55.640Z</time>
      </trkpt>
      <trkpt lat="44.52175" lon="2.53665">
        <ele>376.77239990234</ele>
        <time>2020-06-03T17:44:00.195Z</time>
      </trkpt>
      <trkpt lat="44.52336" lon="2.53814">
        <ele>395.87484741211</ele>
        <time>2020-06-03T17:44:04.805Z</time>
      </trkpt>
      <trkpt lat="44.52345" lon="2.53817">
        <ele>397.09774780273</ele>
        <time>2020-06-03T17:44:09.417Z</time>
      </trkpt>
      <trkpt lat="44.52428" lon="2.53782">
        <ele>403.27545166016</ele>
        <time>2020-06-03T17:44:14.054Z</time>
      </trkpt>
      <trkpt lat="44.5244" lon="2.53879">
        <ele>407.7421875</ele>
        <time>2020-06-03T17:44:18.711Z</time>
      </trkpt>
      <trkpt lat="44.52466" lon="2.53932">
        <ele>408.34991455078</ele>
        <time>2020-06-03T17:44:23.381Z</time>
      </trkpt>
      <trkpt lat="44.52553" lon="2.53963">
        <ele>403.7126159668</ele>
        <time>2020-06-03T17:44:28.077Z</time>
      </trkpt>
      <trkpt lat="44.526" lon="2.5399">
        <ele>406.1455078125</ele>
        <time>2020-06-03T17:44:32.788Z</time>
      </trkpt>
      <trkpt lat="44.52645" lon="2.54003">
        <ele>406.32949829102</ele>
        <time>2020-06-03T17:44:37.512Z</time>
      </trkpt>
      <trkpt lat="44.52664" lon="2.54">
        <ele>405.8254699707</ele>
        <time>2020-06-03T17:44:42.241Z</time>
      </trkpt>
      <trkpt lat="44.52671" lon="2.54">
        <ele>405.66305541992</ele>
        <time>2020-06-03T17:44:46.972Z</time>
      </trkpt>
      <trkpt lat="44.52671" lon="2.54">
        <ele>405.65893554688</ele>
        <time>2020-06-03T17:44:51.703Z</time>
      </trkpt>
      <trkpt lat="44.52671" lon="2.54">
        <ele>405.65914916992</ele>
        <time>2020-06-03T17:44:56.434Z</time>
      </trkpt>
      <trkpt lat="44.52711" lon="2.53999">
        <ele>404.94223022461</ele>
        <time>2020-06-03T17:45:01.177Z</time>
      </trkpt>
      <trkpt lat="44.52774" lon="2.54033">
        <ele>406.37094116211</ele>
        <time>2020-06-03T17:45:05.939Z</time>
      </trkpt>
      <trkpt lat="44.52792" lon="2.54067">
        <ele>406.49545288086</ele>
        <time>2020-06-03T17:45:10.710Z</time>
      </trkpt>
      <trkpt lat="44.52817" lon="2.54146">
        <ele>406.83880615234</ele>
        <time>2020-06-03T17:45:15.498Z</time>
      </trkpt>
      <trkpt lat="44.52819" lon="2.54222">
        <ele>411.4504699707</ele>
        <time>2020-06-03T17:45:20.302Z</time>
      </trkpt>
      <trkpt lat="44.52879" lon="2.54396">
        <ele>424.41149902344</ele>
        <time>2020-06-03T17:45:25.145Z</time>
      </trkpt>
      <trkpt lat="44.52923" lon="2.54446">
        <ele>420.63986206055</ele>
        <time>2020-06-03T17:45:30.005Z</time>
      </trkpt>
      <trkpt lat="44.52953" lon="2.54493">
        <ele>418.29696655273</ele>
        <time>2020-06-03T17:45:34.877Z</time>
      </trkpt>
      <trkpt lat="44.5296" lon="2.54519">
        <ele>419.35592651367</ele>
        <time>2020-06-03T17:45:39.755Z</time>
      </trkpt>
      <trkpt lat="44.52956" lon="2.54572">
        <ele>417.32208251953</ele>
        <time>2020-06-03T17:45:44.644Z</time>
      </trkpt>
      <trkpt lat="44.52965" lon="2.54597">
        <ele>418.24890136719</ele>
        <time>2020-06-03T17:45:49.539Z</time>
      </trkpt>
      <trkpt lat="44.52996" lon="2.54644">
        <ele>422.5725402832</ele>
        <time>2020-06-03T17:45:54.447Z</time>
      </trkpt>
      <trkpt lat="44.53019" lon="2.54694">
        <ele>425.60702514648</ele>
        <time>2020-06-03T17:45:59.367Z</time>
      </trkpt>
      <trkpt lat="44.53036" lon="2.54745">
        <ele>427.12750244141</ele>
        <time>2020-06-03T17:46:04.298Z</time>
      </trkpt>
      <trkpt lat="44.53044" lon="2.54813">
        <ele>426.38098144531</ele>
        <time>2020-06-03T17:46:09.244Z</time>
      </trkpt>
      <trkpt lat="44.53039" lon="2.54887">
        <ele>428.25131225586</ele>
        <time>2020-06-03T17:46:14.205Z</time>
      </trkpt>
      <trkpt lat="44.53038" lon="2.54979">
        <ele>432.22473144531</ele>
        <time>2020-06-03T17:46:19.185Z</time>
      </trkpt>
      <trkpt lat="44.53055" lon="2.55257">
        <ele>436.10626220703</ele>
        <time>2020-06-03T17:46:24.222Z</time>
      </trkpt>
      <trkpt lat="44.53118" lon="2.55306">
        <ele>439.18539428711</ele>
        <time>2020-06-03T17:46:29.279Z</time>
      </trkpt>
      <trkpt lat="44.53154" lon="2.5536">
        <ele>438.25518798828</ele>
        <time>2020-06-03T17:46:34.351Z</time>
      </trkpt>
      <trkpt lat="44.53164" lon="2.55395">
        <ele>436.50338745117</ele>
        <time>2020-06-03T17:46:39.431Z</time>
      </trkpt>
      <trkpt lat="44.53208" lon="2.55407">
        <ele>432.70120239258</ele>
        <time>2020-06-03T17:46:44.524Z</time>
      </trkpt>
      <trkpt lat="44.53208" lon="2.55407">
        <ele>432.70007324219</ele>
        <time>2020-06-03T17:46:49.617Z</time>
      </trkpt>
      <trkpt lat="44.53208" lon="2.55407">
        <ele>432.69989013672</ele>
        <time>2020-06-03T17:46:54.710Z</time>
      </trkpt>
      <trkpt lat="44.53263" lon="2.55424">
        <ele>431.38848876953</ele>
        <time>2020-06-03T17:46:59.819Z</time>
      </trkpt>
      <trkpt lat="44.53375" lon="2.55469">
        <ele>418.74758911133</ele>
        <time>2020-06-03T17:47:04.961Z</time>
      </trkpt>
      <trkpt lat="44.53327" lon="2.55499">
        <ele>415.56259155273</ele>
        <time>2020-06-03T17:47:10.118Z</time>
      </trkpt>
      <trkpt lat="44.53385" lon="2.55533">
        <ele>408.57434082031</ele>
        <time>2020-06-03T17:47:15.293Z</time>
      </trkpt>
      <trkpt lat="44.5343" lon="2.55549">
        <ele>404.88031005859</ele>
        <time>2020-06-03T17:47:20.481Z</time>
      </trkpt>
      <trkpt lat="44.53468" lon="2.55542">
        <ele>401.42175292969</ele>
        <time>2020-06-03T17:47:25.680Z</time>
      </trkpt>
      <trkpt lat="44.53459" lon="2.55463">
        <ele>406.09396362305</ele>
        <time>2020-06-03T17:47:30.895Z</time>
      </trkpt>
      <trkpt lat="44.53502" lon="2.55348">
        <ele>382.06762695312</ele>
        <time>2020-06-03T17:47:36.137Z</time>
      </trkpt>
      <trkpt lat="44.53537" lon="2.55178">
        <ele>360.26553344727</ele>
        <time>2020-06-03T17:47:41.415Z</time>
      </trkpt>
      <trkpt lat="44.53543" lon="2.55213">
        <ele>362.31225585938</ele>
        <time>2020-06-03T17:47:46.700Z</time>
      </trkpt>
      <trkpt lat="44.53545" lon="2.55319">
        <ele>369.85232543945</ele>
        <time>2020-06-03T17:47:52.007Z</time>
      </trkpt>
      <trkpt lat="44.5353" lon="2.55387">
        <ele>379.44165039062</ele>
        <time>2020-06-03T17:47:57.328Z</time>
      </trkpt>
      <trkpt lat="44.53532" lon="2.55395">
        <ele>379.40301513672</ele>
        <time>2020-06-03T17:48:02.651Z</time>
      </trkpt>
      <trkpt lat="44.53563" lon="2.55407">
        <ele>363.34838867188</ele>
        <time>2020-06-03T17:48:07.983Z</time>
      </trkpt>
      <trkpt lat="44.53567" lon="2.55418">
        <ele>362.00186157227</ele>
        <time>2020-06-03T17:48:13.318Z</time>
      </trkpt>
      <trkpt lat="44.53597" lon="2.55627">
        <ele>348.46673583984</ele>
        <time>2020-06-03T17:48:18.696Z</time>
      </trkpt>
      <trkpt lat="44.53551" lon="2.55715">
        <ele>350.55755615234</ele>
        <time>2020-06-03T17:48:24.097Z</time>
      </trkpt>
      <trkpt lat="44.53591" lon="2.55706">
        <ele>342.17816162109</ele>
        <time>2020-06-03T17:48:29.509Z</time>
      </trkpt>
      <trkpt lat="44.53621" lon="2.55718">
        <ele>333.11401367188</ele>
        <time>2020-06-03T17:48:34.930Z</time>
      </trkpt>
      <trkpt lat="44.53649" lon="2.55739">
        <ele>327.91354370117</ele>
        <time>2020-06-03T17:48:40.360Z</time>
      </trkpt>
      <trkpt lat="44.53678" lon="2.55838">
        <ele>343.71697998047</ele>
        <time>2020-06-03T17:48:45.812Z</time>
      </trkpt>
      <trkpt lat="44.53739" lon="2.55959">
        <ele>345.03778076172</ele>
        <time>2020-06-03T17:48:51.295Z</time>
      </trkpt>
      <trkpt lat="44.53796" lon="2.5605">
        <ele>334.11996459961</ele>
        <time>2020-06-03T17:48:56.802Z</time>
      </trkpt>
      <trkpt lat="44.53863" lon="2.56195">
        <ele>322.50445556641</ele>
        <time>2020-06-03T17:49:02.344Z</time>
      </trkpt>
      <trkpt lat="44.5387" lon="2.56233">
        <ele>323.77813720703</ele>
        <time>2020-06-03T17:49:07.894Z</time>
      </trkpt>
      <trkpt lat="44.53898" lon="2.56246">
        <ele>316.08041381836</ele>
        <time>2020-06-03T17:49:13.453Z</time>
      </trkpt>
      <trkpt lat="44.53912" lon="2.56302">
        <ele>314.32846069336</ele>
        <time>2020-06-03T17:49:19.024Z</time>
      </trkpt>
      <trkpt lat="44.53922" lon="2.56326">
        <ele>310.99447631836</ele>
        <time>2020-06-03T17:49:24.601Z</time>
      </trkpt>
      <trkpt lat="44.53927" lon="2.56337">
        <ele>309.85586547852</ele>
        <time>2020-06-03T17:49:30.180Z</time>
      </trkpt>
      <trkpt lat="44.53927" lon="2.56338">
        <ele>309.86596679688</ele>
        <time>2020-06-03T17:49:35.759Z</time>
      </trkpt>
      <trkpt lat="44.53927" lon="2.56338">
        <ele>309.8678894043</ele>
        <time>2020-06-03T17:49:41.338Z</time>
      </trkpt>
      <trkpt lat="44.53927" lon="2.56338">
        <ele>309.86596679688</ele>
        <time>2020-06-03T17:49:46.917Z</time>
      </trkpt>
      <trkpt lat="44.53927" lon="2.56338">
        <ele>309.8678894043</ele>
        <time>2020-06-03T17:49:52.496Z</time>
      </trkpt>
      <trkpt lat="44.53954" lon="2.56298">
        <ele>301.89279174805</ele>
        <time>2020-06-03T17:49:58.087Z</time>
      </trkpt>
      <trkpt lat="44.53963" lon="2.56255">
        <ele>299.90417480469</ele>
        <time>2020-06-03T17:50:03.687Z</time>
      </trkpt>
      <trkpt lat="44.53963" lon="2.56255">
        <ele>299.90356445312</ele>
        <time>2020-06-03T17:50:09.287Z</time>
      </trkpt>
      <trkpt lat="44.53958" lon="2.56222">
        <ele>299.54681396484</ele>
        <time>2020-06-03T17:50:14.894Z</time>
      </trkpt>
      <trkpt lat="44.53924" lon="2.5611">
        <ele>304.51983642578</ele>
        <time>2020-06-03T17:50:20.525Z</time>
      </trkpt>
      <trkpt lat="44.5388" lon="2.55955">
        <ele>306.63958740234</ele>
        <time>2020-06-03T17:50:26.191Z</time>
      </trkpt>
      <trkpt lat="44.5388" lon="2.55955">
        <ele>306.63827514648</ele>
        <time>2020-06-03T17:50:31.857Z</time>
      </trkpt>
      <trkpt lat="44.53868" lon="2.55891">
        <ele>309.97869873047</ele>
        <time>2020-06-03T17:50:37.536Z</time>
      </trkpt>
      <trkpt lat="44.53813" lon="2.55809">
        <ele>308.67218017578</ele>
        <time>2020-06-03T17:50:43.238Z</time>
      </trkpt>
      <trkpt lat="44.53801" lon="2.55751">
        <ele>306.38223266602</ele>
        <time>2020-06-03T17:50:48.952Z</time>
      </trkpt>
      <trkpt lat="44.53805" lon="2.55681">
        <ele>309.7571105957</ele>
        <time>2020-06-03T17:50:54.681Z</time>
      </trkpt>
      <trkpt lat="44.53849" lon="2.55627">
        <ele>319.30407714844</ele>
        <time>2020-06-03T17:51:00.426Z</time>
      </trkpt>
      <trkpt lat="44.53849" lon="2.55627">
        <ele>319.30218505859</ele>
        <time>2020-06-03T17:51:06.171Z</time>
      </trkpt>
      <trkpt lat="44.53901" lon="2.55527">
        <ele>325.7021484375</ele>
        <time>2020-06-03T17:51:11.942Z</time>
      </trkpt>
      <trkpt lat="44.53901" lon="2.55527">
        <ele>325.70083618164</ele>
        <time>2020-06-03T17:51:17.713Z</time>
      </trkpt>
      <trkpt lat="44.53885" lon="2.55448">
        <ele>323.80551147461</ele>
        <time>2020-06-03T17:51:23.501Z</time>
      </trkpt>
      <trkpt lat="44.53887" lon="2.55412">
        <ele>325.06817626953</ele>
        <time>2020-06-03T17:51:29.296Z</time>
      </trkpt>
      <trkpt lat="44.53902" lon="2.55346">
        <ele>326.001953125</ele>
        <time>2020-06-03T17:51:35.105Z</time>
      </trkpt>
      <trkpt lat="44.53939" lon="2.55296">
        <ele>332.46835327148</ele>
        <time>2020-06-03T17:51:40.929Z</time>
      </trkpt>
      <trkpt lat="44.53939" lon="2.55296">
        <ele>332.46606445312</ele>
        <time>2020-06-03T17:51:46.753Z</time>
      </trkpt>
      <trkpt lat="44.53986" lon="2.55244">
        <ele>339.53646850586</ele>
        <time>2020-06-03T17:51:52.594Z</time>
      </trkpt>
      <trkpt lat="44.54105" lon="2.55147">
        <ele>350.9079284668</ele>
        <time>2020-06-03T17:51:58.474Z</time>
      </trkpt>
      <trkpt lat="44.54105" lon="2.55147">
        <ele>350.90682983398</ele>
        <time>2020-06-03T17:52:04.354Z</time>
      </trkpt>
      <trkpt lat="44.54184" lon="2.55096">
        <ele>357.43084716797</ele>
        <time>2020-06-03T17:52:10.259Z</time>
      </trkpt>
      <trkpt lat="44.54209" lon="2.55068">
        <ele>360.29183959961</ele>
        <time>2020-06-03T17:52:16.173Z</time>
      </trkpt>
      <trkpt lat="44.5422" lon="2.55031">
        <ele>361.25726318359</ele>
        <time>2020-06-03T17:52:22.096Z</time>
      </trkpt>
      <trkpt lat="44.54211" lon="2.54977">
        <ele>362.26647949219</ele>
        <time>2020-06-03T17:52:28.030Z</time>
      </trkpt>
      <trkpt lat="44.54221" lon="2.54976">
        <ele>365.96087646484</ele>
        <time>2020-06-03T17:52:33.967Z</time>
      </trkpt>
      <trkpt lat="44.54238" lon="2.55016">
        <ele>368.17514038086</ele>
        <time>2020-06-03T17:52:39.913Z</time>
      </trkpt>
      <trkpt lat="44.54253" lon="2.55018">
        <ele>373.22564697266</ele>
        <time>2020-06-03T17:52:45.863Z</time>
      </trkpt>
      <trkpt lat="44.54253" lon="2.55018">
        <ele>373.2991027832</ele>
        <time>2020-06-03T17:52:51.813Z</time>
      </trkpt>
      <trkpt lat="44.54253" lon="2.55018">
        <ele>373.30221557617</ele>
        <time>2020-06-03T17:52:57.763Z</time>
      </trkpt>
      <trkpt lat="44.54273" lon="2.55021">
        <ele>380.30099487305</ele>
        <time>2020-06-03T17:53:03.719Z</time>
      </trkpt>
      <trkpt lat="44.54282" lon="2.55031">
        <ele>382.73388671875</ele>
        <time>2020-06-03T17:53:09.678Z</time>
      </trkpt>
      <trkpt lat="44.54274" lon="2.55081">
        <ele>374.6575012207</ele>
        <time>2020-06-03T17:53:15.648Z</time>
      </trkpt>
      <trkpt lat="44.54293" lon="2.55134">
        <ele>382.06790161133</ele>
        <time>2020-06-03T17:53:21.630Z</time>
      </trkpt>
      <trkpt lat="44.54293" lon="2.55134">
        <ele>382.07043457031</ele>
        <time>2020-06-03T17:53:27.612Z</time>
      </trkpt>
      <trkpt lat="44.54316" lon="2.55195">
        <ele>392.09066772461</ele>
        <time>2020-06-03T17:53:33.608Z</time>
      </trkpt>
      <trkpt lat="44.54323" lon="2.55248">
        <ele>398.97549438477</ele>
        <time>2020-06-03T17:53:39.615Z</time>
      </trkpt>
      <trkpt lat="44.54319" lon="2.55271">
        <ele>398.64572143555</ele>
        <time>2020-06-03T17:53:45.627Z</time>
      </trkpt>
      <trkpt lat="44.54289" lon="2.55307">
        <ele>396.46743774414</ele>
        <time>2020-06-03T17:53:51.650Z</time>
      </trkpt>
      <trkpt lat="44.54289" lon="2.55307">
        <ele>396.46884155273</ele>
        <time>2020-06-03T17:53:57.673Z</time>
      </trkpt>
      <trkpt lat="44.5427" lon="2.55323">
        <ele>395.72512817383</ele>
        <time>2020-06-03T17:54:03.702Z</time>
      </trkpt>
      <trkpt lat="44.54264" lon="2.55341">
        <ele>395.79913330078</ele>
        <time>2020-06-03T17:54:09.735Z</time>
      </trkpt>
      <trkpt lat="44.54281" lon="2.55388">
        <ele>401.72045898438</ele>
        <time>2020-06-03T17:54:15.779Z</time>
      </trkpt>
      <trkpt lat="44.54267" lon="2.55428">
        <ele>401.31167602539</ele>
        <time>2020-06-03T17:54:21.832Z</time>
      </trkpt>
      <trkpt lat="44.54238" lon="2.55434">
        <ele>395.86663818359</ele>
        <time>2020-06-03T17:54:27.894Z</time>
      </trkpt>
      <trkpt lat="44.54233" lon="2.55444">
        <ele>395.46929931641</ele>
        <time>2020-06-03T17:54:33.958Z</time>
      </trkpt>
      <trkpt lat="44.54245" lon="2.55486">
        <ele>398.8557434082</ele>
        <time>2020-06-03T17:54:40.031Z</time>
      </trkpt>
      <trkpt lat="44.54259" lon="2.55506">
        <ele>403.10479736328</ele>
        <time>2020-06-03T17:54:46.110Z</time>
      </trkpt>
      <trkpt lat="44.5426" lon="2.55506">
        <ele>403.15170288086</ele>
        <time>2020-06-03T17:54:52.189Z</time>
      </trkpt>
      <trkpt lat="44.5426" lon="2.55506">
        <ele>403.15441894531</ele>
        <time>2020-06-03T17:54:58.268Z</time>
      </trkpt>
      <trkpt lat="44.54268" lon="2.55518">
        <ele>406.08389282227</ele>
        <time>2020-06-03T17:55:04.351Z</time>
      </trkpt>
      <trkpt lat="44.54298" lon="2.55598">
        <ele>416.42300415039</ele>
        <time>2020-06-03T17:55:10.452Z</time>
      </trkpt>
      <trkpt lat="44.54298" lon="2.55598">
        <ele>416.42443847656</ele>
        <time>2020-06-03T17:55:16.553Z</time>
      </trkpt>
      <trkpt lat="44.54316" lon="2.55637">
        <ele>419.78649902344</ele>
        <time>2020-06-03T17:55:22.664Z</time>
      </trkpt>
      <trkpt lat="44.54306" lon="2.55679">
        <ele>417.10403442383</ele>
        <time>2020-06-03T17:55:28.784Z</time>
      </trkpt>
      <trkpt lat="44.54307" lon="2.55707">
        <ele>417.3434753418</ele>
        <time>2020-06-03T17:55:34.909Z</time>
      </trkpt>
      <trkpt lat="44.54288" lon="2.55768">
        <ele>405.13989257812</ele>
        <time>2020-06-03T17:55:41.048Z</time>
      </trkpt>
      <trkpt lat="44.54287" lon="2.55811">
        <ele>403.64669799805</ele>
        <time>2020-06-03T17:55:47.196Z</time>
      </trkpt>
      <trkpt lat="44.54295" lon="2.55844">
        <ele>405.02639770508</ele>
        <time>2020-06-03T17:55:53.351Z</time>
      </trkpt>
      <trkpt lat="44.54272" lon="2.55878">
        <ele>398.1764831543</ele>
        <time>2020-06-03T17:55:59.516Z</time>
      </trkpt>
      <trkpt lat="44.54273" lon="2.55898">
        <ele>398.78149414062</ele>
        <time>2020-06-03T17:56:05.685Z</time>
      </trkpt>
      <trkpt lat="44.54258" lon="2.55973">
        <ele>392.15185546875</ele>
        <time>2020-06-03T17:56:11.870Z</time>
      </trkpt>
      <trkpt lat="44.54268" lon="2.55976">
        <ele>395.93637084961</ele>
        <time>2020-06-03T17:56:18.058Z</time>
      </trkpt>
      <trkpt lat="44.54283" lon="2.55955">
        <ele>401.8576965332</ele>
        <time>2020-06-03T17:56:24.252Z</time>
      </trkpt>
      <trkpt lat="44.5431" lon="2.55946">
        <ele>401.06573486328</ele>
        <time>2020-06-03T17:56:30.454Z</time>
      </trkpt>
      <trkpt lat="44.54325" lon="2.55952">
        <ele>402.00836181641</ele>
        <time>2020-06-03T17:56:36.660Z</time>
      </trkpt>
      <trkpt lat="44.54334" lon="2.55975">
        <ele>399.23782348633</ele>
        <time>2020-06-03T17:56:42.871Z</time>
      </trkpt>
      <trkpt lat="44.54354" lon="2.55981">
        <ele>399.92300415039</ele>
        <time>2020-06-03T17:56:49.088Z</time>
      </trkpt>
      <trkpt lat="44.54375" lon="2.55976">
        <ele>404.43237304688</ele>
        <time>2020-06-03T17:56:55.311Z</time>
      </trkpt>
      <trkpt lat="44.5439" lon="2.5596">
        <ele>408.73178100586</ele>
        <time>2020-06-03T17:57:01.540Z</time>
      </trkpt>
      <trkpt lat="44.54404" lon="2.55961">
        <ele>407.72772216797</ele>
        <time>2020-06-03T17:57:07.773Z</time>
      </trkpt>
      <trkpt lat="44.54429" lon="2.55989">
        <ele>397.79019165039</ele>
        <time>2020-06-03T17:57:14.015Z</time>
      </trkpt>
      <trkpt lat="44.54445" lon="2.55994">
        <ele>395.35986328125</ele>
        <time>2020-06-03T17:57:20.262Z</time>
      </trkpt>
      <trkpt lat="44.54459" lon="2.5606">
        <ele>379.61773681641</ele>
        <time>2020-06-03T17:57:26.523Z</time>
      </trkpt>
      <trkpt lat="44.54476" lon="2.56074">
        <ele>377.7126159668</ele>
        <time>2020-06-03T17:57:32.789Z</time>
      </trkpt>
      <trkpt lat="44.54525" lon="2.56063">
        <ele>385.35107421875</ele>
        <time>2020-06-03T17:57:39.069Z</time>
      </trkpt>
      <trkpt lat="44.5456" lon="2.5602">
        <ele>395.84567260742</ele>
        <time>2020-06-03T17:57:45.363Z</time>
      </trkpt>
      <trkpt lat="44.5456" lon="2.5602">
        <ele>395.84436035156</ele>
        <time>2020-06-03T17:57:51.657Z</time>
      </trkpt>
      <trkpt lat="44.5463" lon="2.56017">
        <ele>386.76275634766</ele>
        <time>2020-06-03T17:57:57.971Z</time>
      </trkpt>
      <trkpt lat="44.5467" lon="2.56037">
        <ele>375.46701049805</ele>
        <time>2020-06-03T17:58:04.297Z</time>
      </trkpt>
      <trkpt lat="44.54746" lon="2.55974">
        <ele>386.408203125</ele>
        <time>2020-06-03T17:58:10.648Z</time>
      </trkpt>
      <trkpt lat="44.54767" lon="2.55966">
        <ele>385.11828613281</ele>
        <time>2020-06-03T17:58:17.005Z</time>
      </trkpt>
      <trkpt lat="44.54767" lon="2.55966">
        <ele>385.11026000977</ele>
        <time>2020-06-03T17:58:23.362Z</time>
      </trkpt>
      <trkpt lat="44.54767" lon="2.55966">
        <ele>385.10885620117</ele>
        <time>2020-06-03T17:58:29.719Z</time>
      </trkpt>
      <trkpt lat="44.54768" lon="2.55965">
        <ele>385.06732177734</ele>
        <time>2020-06-03T17:58:36.077Z</time>
      </trkpt>
      <trkpt lat="44.54766" lon="2.55977">
        <ele>381.32144165039</ele>
        <time>2020-06-03T17:58:42.437Z</time>
      </trkpt>
      <trkpt lat="44.54752" lon="2.55981">
        <ele>382.76528930664</ele>
        <time>2020-06-03T17:58:48.801Z</time>
      </trkpt>
      <trkpt lat="44.547" lon="2.56031">
        <ele>375.93041992188</ele>
        <time>2020-06-03T17:58:55.183Z</time>
      </trkpt>
      <trkpt lat="44.54665" lon="2.5608">
        <ele>359.39590454102</ele>
        <time>2020-06-03T17:59:01.580Z</time>
      </trkpt>
      <trkpt lat="44.54646" lon="2.56091">
        <ele>359.37036132812</ele>
        <time>2020-06-03T17:59:07.982Z</time>
      </trkpt>
      <trkpt lat="44.54563" lon="2.56107">
        <ele>368.05871582031</ele>
        <time>2020-06-03T17:59:14.408Z</time>
      </trkpt>
      <trkpt lat="44.54517" lon="2.56157">
        <ele>348.53930664062</ele>
        <time>2020-06-03T17:59:20.851Z</time>
      </trkpt>
      <trkpt lat="44.54475" lon="2.56171">
        <ele>345.35433959961</ele>
        <time>2020-06-03T17:59:27.306Z</time>
      </trkpt>
      <trkpt lat="44.54475" lon="2.56171">
        <ele>345.35424804688</ele>
        <time>2020-06-03T17:59:33.761Z</time>
      </trkpt>
      <trkpt lat="44.54436" lon="2.56181">
        <ele>342.96755981445</ele>
        <time>2020-06-03T17:59:40.228Z</time>
      </trkpt>
      <trkpt lat="44.54408" lon="2.56175">
        <ele>344.43502807617</ele>
        <time>2020-06-03T17:59:46.703Z</time>
      </trkpt>
      <trkpt lat="44.54364" lon="2.56185">
        <ele>341.65322875977</ele>
        <time>2020-06-03T17:59:53.191Z</time>
      </trkpt>
      <trkpt lat="44.54341" lon="2.56231">
        <ele>330.10202026367</ele>
        <time>2020-06-03T17:59:59.690Z</time>
      </trkpt>
      <trkpt lat="44.54333" lon="2.56238">
        <ele>327.6047668457</ele>
        <time>2020-06-03T18:00:06.192Z</time>
      </trkpt>
      <trkpt lat="44.54313" lon="2.56221">
        <ele>332.23883056641</ele>
        <time>2020-06-03T18:00:12.700Z</time>
      </trkpt>
      <trkpt lat="44.54267" lon="2.56227">
        <ele>328.94741821289</ele>
        <time>2020-06-03T18:00:19.222Z</time>
      </trkpt>
      <trkpt lat="44.54214" lon="2.56214">
        <ele>332.14624023438</ele>
        <time>2020-06-03T18:00:25.759Z</time>
      </trkpt>
      <trkpt lat="44.54179" lon="2.56216">
        <ele>328.56958007812</ele>
        <time>2020-06-03T18:00:32.306Z</time>
      </trkpt>
      <trkpt lat="44.54118" lon="2.56238">
        <ele>320.6467590332</ele>
        <time>2020-06-03T18:00:38.871Z</time>
      </trkpt>
      <trkpt lat="44.54047" lon="2.56259">
        <ele>307.41107177734</ele>
        <time>2020-06-03T18:00:45.457Z</time>
      </trkpt>
      <trkpt lat="44.54041" lon="2.56273">
        <ele>306.62844848633</ele>
        <time>2020-06-03T18:00:52.046Z</time>
      </trkpt>
      <trkpt lat="44.54041" lon="2.56274">
        <ele>306.60952758789</ele>
        <time>2020-06-03T18:00:58.635Z</time>
      </trkpt>
      <trkpt lat="44.54041" lon="2.56274">
        <ele>306.61083984375</ele>
        <time>2020-06-03T18:01:05.224Z</time>
      </trkpt>
      <trkpt lat="44.54039" lon="2.56279">
        <ele>306.23611450195</ele>
        <time>2020-06-03T18:01:11.814Z</time>
      </trkpt>
      <trkpt lat="44.54113" lon="2.56303">
        <ele>319.47256469727</ele>
        <time>2020-06-03T18:01:18.426Z</time>
      </trkpt>
      <trkpt lat="44.54145" lon="2.56307">
        <ele>321.9831237793</ele>
        <time>2020-06-03T18:01:25.047Z</time>
      </trkpt>
      <trkpt lat="44.54145" lon="2.56307">
        <ele>321.98361206055</ele>
        <time>2020-06-03T18:01:31.668Z</time>
      </trkpt>
      <trkpt lat="44.54242" lon="2.5633">
        <ele>324.09252929688</ele>
        <time>2020-06-03T18:01:38.317Z</time>
      </trkpt>
      <trkpt lat="44.54266" lon="2.56361">
        <ele>331.44888305664</ele>
        <time>2020-06-03T18:01:44.976Z</time>
      </trkpt>
      <trkpt lat="44.54316" lon="2.56457">
        <ele>350.28802490234</ele>
        <time>2020-06-03T18:01:51.659Z</time>
      </trkpt>
      <trkpt lat="44.54319" lon="2.56495">
        <ele>357.58673095703</ele>
        <time>2020-06-03T18:01:58.350Z</time>
      </trkpt>
      <trkpt lat="44.54322" lon="2.56498">
        <ele>357.44512939453</ele>
        <time>2020-06-03T18:02:05.042Z</time>
      </trkpt>
      <trkpt lat="44.54333" lon="2.5644">
        <ele>344.984375</ele>
        <time>2020-06-03T18:02:11.746Z</time>
      </trkpt>
      <trkpt lat="44.54361" lon="2.5643">
        <ele>339.79678344727</ele>
        <time>2020-06-03T18:02:18.458Z</time>
      </trkpt>
      <trkpt lat="44.54397" lon="2.56395">
        <ele>338.51385498047</ele>
        <time>2020-06-03T18:02:25.183Z</time>
      </trkpt>
      <trkpt lat="44.54445" lon="2.56366">
        <ele>341.44555664062</ele>
        <time>2020-06-03T18:02:31.923Z</time>
      </trkpt>
      <trkpt lat="44.54489" lon="2.56308">
        <ele>342.83001708984</ele>
        <time>2020-06-03T18:02:38.680Z</time>
      </trkpt>
      <trkpt lat="44.54589" lon="2.56285">
        <ele>354.62362670898</ele>
        <time>2020-06-03T18:02:45.466Z</time>
      </trkpt>
      <trkpt lat="44.54692" lon="2.56328">
        <ele>376.40396118164</ele>
        <time>2020-06-03T18:02:52.283Z</time>
      </trkpt>
      <trkpt lat="44.54714" lon="2.56344">
        <ele>381.66329956055</ele>
        <time>2020-06-03T18:02:59.107Z</time>
      </trkpt>
      <trkpt lat="44.54725" lon="2.56369">
        <ele>388.36196899414</ele>
        <time>2020-06-03T18:03:05.937Z</time>
      </trkpt>
      <trkpt lat="44.54761" lon="2.56375">
        <ele>390.66116333008</ele>
        <time>2020-06-03T18:03:12.777Z</time>
      </trkpt>
      <trkpt lat="44.54778" lon="2.56388">
        <ele>394.21395874023</ele>
        <time>2020-06-03T18:03:19.623Z</time>
      </trkpt>
      <trkpt lat="44.54779" lon="2.56389">
        <ele>394.48428344727</ele>
        <time>2020-06-03T18:03:26.469Z</time>
      </trkpt>
      <trkpt lat="44.54789" lon="2.56391">
        <ele>395.78323364258</ele>
        <time>2020-06-03T18:03:33.318Z</time>
      </trkpt>
      <trkpt lat="44.54792" lon="2.5639">
        <ele>395.97631835938</ele>
        <time>2020-06-03T18:03:40.168Z</time>
      </trkpt>
      <trkpt lat="44.54798" lon="2.56379">
        <ele>394.81781005859</ele>
        <time>2020-06-03T18:03:47.021Z</time>
      </trkpt>
      <trkpt lat="44.54795" lon="2.56366">
        <ele>391.92150878906</ele>
        <time>2020-06-03T18:03:53.877Z</time>
      </trkpt>
      <trkpt lat="44.54764" lon="2.5634">
        <ele>384.52099609375</ele>
        <time>2020-06-03T18:04:00.743Z</time>
      </trkpt>
      <trkpt lat="44.54751" lon="2.56315">
        <ele>378.69049072266</ele>
        <time>2020-06-03T18:04:07.615Z</time>
      </trkpt>
      <trkpt lat="44.5475" lon="2.56279">
        <ele>374.29315185547</ele>
        <time>2020-06-03T18:04:14.495Z</time>
      </trkpt>
      <trkpt lat="44.54755" lon="2.56269">
        <ele>374.87240600586</ele>
        <time>2020-06-03T18:04:21.377Z</time>
      </trkpt>
      <trkpt lat="44.54775" lon="2.56263">
        <ele>378.65692138672</ele>
        <time>2020-06-03T18:04:28.265Z</time>
      </trkpt>
      <trkpt lat="44.54824" lon="2.56269">
        <ele>390.56207275391</ele>
        <time>2020-06-03T18:04:35.167Z</time>
      </trkpt>
      <trkpt lat="44.54895" lon="2.56263">
        <ele>408.04455566406</ele>
        <time>2020-06-03T18:04:42.089Z</time>
      </trkpt>
      <trkpt lat="44.54914" lon="2.56248">
        <ele>409.96069335938</ele>
        <time>2020-06-03T18:04:49.018Z</time>
      </trkpt>
      <trkpt lat="44.54953" lon="2.56191">
        <ele>404.93304443359</ele>
        <time>2020-06-03T18:04:55.963Z</time>
      </trkpt>
      <trkpt lat="44.54967" lon="2.56187">
        <ele>408.22839355469</ele>
        <time>2020-06-03T18:05:02.912Z</time>
      </trkpt>
      <trkpt lat="44.54999" lon="2.56171">
        <ele>412.90808105469</ele>
        <time>2020-06-03T18:05:09.870Z</time>
      </trkpt>
      <trkpt lat="44.55055" lon="2.56171">
        <ele>428.69808959961</ele>
        <time>2020-06-03T18:05:16.844Z</time>
      </trkpt>
      <trkpt lat="44.55091" lon="2.56161">
        <ele>434.50869750977</ele>
        <time>2020-06-03T18:05:23.829Z</time>
      </trkpt>
      <trkpt lat="44.55101" lon="2.5615">
        <ele>433.22372436523</ele>
        <time>2020-06-03T18:05:30.818Z</time>
      </trkpt>
      <trkpt lat="44.55119" lon="2.56098">
        <ele>421.44299316406</ele>
        <time>2020-06-03T18:05:37.818Z</time>
      </trkpt>
      <trkpt lat="44.55141" lon="2.56082">
        <ele>425.84429931641</ele>
        <time>2020-06-03T18:05:44.825Z</time>
      </trkpt>
      <trkpt lat="44.55165" lon="2.56048">
        <ele>425.96377563477</ele>
        <time>2020-06-03T18:05:51.842Z</time>
      </trkpt>
      <trkpt lat="44.55206" lon="2.56055">
        <ele>445.84381103516</ele>
        <time>2020-06-03T18:05:58.871Z</time>
      </trkpt>
      <trkpt lat="44.5526" lon="2.5603">
        <ele>452.20153808594</ele>
        <time>2020-06-03T18:06:05.916Z</time>
      </trkpt>
      <trkpt lat="44.55303" lon="2.56024">
        <ele>461.09344482422</ele>
        <time>2020-06-03T18:06:12.974Z</time>
      </trkpt>
      <trkpt lat="44.55246" lon="2.56122">
        <ele>479.6457824707</ele>
        <time>2020-06-03T18:06:20.057Z</time>
      </trkpt>
      <trkpt lat="44.55326" lon="2.56079">
        <ele>487.1086730957</ele>
        <time>2020-06-03T18:06:27.165Z</time>
      </trkpt>
      <trkpt lat="44.55336" lon="2.56078">
        <ele>489.02667236328</ele>
        <time>2020-06-03T18:06:34.276Z</time>
      </trkpt>
      <trkpt lat="44.55361" lon="2.56038">
        <ele>484.8620300293</ele>
        <time>2020-06-03T18:06:41.397Z</time>
      </trkpt>
      <trkpt lat="44.5537" lon="2.56042">
        <ele>488.3037109375</ele>
        <time>2020-06-03T18:06:48.521Z</time>
      </trkpt>
      <trkpt lat="44.55363" lon="2.56076">
        <ele>495.09564208984</ele>
        <time>2020-06-03T18:06:55.653Z</time>
      </trkpt>
      <trkpt lat="44.55365" lon="2.56111">
        <ele>504.47351074219</ele>
        <time>2020-06-03T18:07:02.792Z</time>
      </trkpt>
      <trkpt lat="44.55347" lon="2.56151">
        <ele>509.55484008789</ele>
        <time>2020-06-03T18:07:09.940Z</time>
      </trkpt>
      <trkpt lat="44.55325" lon="2.56176">
        <ele>512.74493408203</ele>
        <time>2020-06-03T18:07:17.096Z</time>
      </trkpt>
      <trkpt lat="44.55322" lon="2.56217">
        <ele>517.67114257812</ele>
        <time>2020-06-03T18:07:24.261Z</time>
      </trkpt>
      <trkpt lat="44.55328" lon="2.56231">
        <ele>520.64471435547</ele>
        <time>2020-06-03T18:07:31.429Z</time>
      </trkpt>
      <trkpt lat="44.55359" lon="2.56234">
        <ele>523.94396972656</ele>
        <time>2020-06-03T18:07:38.606Z</time>
      </trkpt>
      <trkpt lat="44.55403" lon="2.5625">
        <ele>527.26672363281</ele>
        <time>2020-06-03T18:07:45.796Z</time>
      </trkpt>
      <trkpt lat="44.55403" lon="2.5625">
        <ele>527.28131103516</ele>
        <time>2020-06-03T18:07:52.986Z</time>
      </trkpt>
      <trkpt lat="44.55431" lon="2.56259">
        <ele>527.96362304688</ele>
        <time>2020-06-03T18:08:00.184Z</time>
      </trkpt>
      <trkpt lat="44.55446" lon="2.56276">
        <ele>528.55572509766</ele>
        <time>2020-06-03T18:08:07.388Z</time>
      </trkpt>
      <trkpt lat="44.55449" lon="2.56293">
        <ele>528.9677734375</ele>
        <time>2020-06-03T18:08:14.595Z</time>
      </trkpt>
      <trkpt lat="44.55449" lon="2.56293">
        <ele>528.96765136719</ele>
        <time>2020-06-03T18:08:21.802Z</time>
      </trkpt>
      <trkpt lat="44.55401" lon="2.56392">
        <ele>537.19970703125</ele>
        <time>2020-06-03T18:08:29.034Z</time>
      </trkpt>
      <trkpt lat="44.55396" lon="2.56454">
        <ele>545.29827880859</ele>
        <time>2020-06-03T18:08:36.278Z</time>
      </trkpt>
      <trkpt lat="44.55402" lon="2.56457">
        <ele>544.71899414062</ele>
        <time>2020-06-03T18:08:43.524Z</time>
      </trkpt>
      <trkpt lat="44.5545" lon="2.56406">
        <ele>533.51586914062</ele>
        <time>2020-06-03T18:08:50.787Z</time>
      </trkpt>
      <trkpt lat="44.55488" lon="2.56401">
        <ele>525.59039306641</ele>
        <time>2020-06-03T18:08:58.061Z</time>
      </trkpt>
      <trkpt lat="44.555" lon="2.56407">
        <ele>523.4921875</ele>
        <time>2020-06-03T18:09:05.339Z</time>
      </trkpt>
      <trkpt lat="44.55526" lon="2.56492">
        <ele>529.44885253906</ele>
        <time>2020-06-03T18:09:12.636Z</time>
      </trkpt>
      <trkpt lat="44.55532" lon="2.56553">
        <ele>530.60223388672</ele>
        <time>2020-06-03T18:09:19.945Z</time>
      </trkpt>
      <trkpt lat="44.55535" lon="2.56677">
        <ele>535.07434082031</ele>
        <time>2020-06-03T18:09:27.280Z</time>
      </trkpt>
      <trkpt lat="44.55542" lon="2.56691">
        <ele>534.18615722656</ele>
        <time>2020-06-03T18:09:34.618Z</time>
      </trkpt>
      <trkpt lat="44.55553" lon="2.56657">
        <ele>530.54693603516</ele>
        <time>2020-06-03T18:09:41.964Z</time>
      </trkpt>
      <trkpt lat="44.55577" lon="2.56507">
        <ele>519.2021484375</ele>
        <time>2020-06-03T18:09:49.341Z</time>
      </trkpt>
      <trkpt lat="44.55577" lon="2.56451">
        <ele>514.06353759766</ele>
        <time>2020-06-03T18:09:56.729Z</time>
      </trkpt>
      <trkpt lat="44.55547" lon="2.56371">
        <ele>511.22503662109</ele>
        <time>2020-06-03T18:10:04.136Z</time>
      </trkpt>
      <trkpt lat="44.55547" lon="2.56325">
        <ele>508.01477050781</ele>
        <time>2020-06-03T18:10:11.552Z</time>
      </trkpt>
      <trkpt lat="44.55574" lon="2.56288">
        <ele>508.95892333984</ele>
        <time>2020-06-03T18:10:18.979Z</time>
      </trkpt>
      <trkpt lat="44.55583" lon="2.56249">
        <ele>507.72497558594</ele>
        <time>2020-06-03T18:10:26.415Z</time>
      </trkpt>
      <trkpt lat="44.55582" lon="2.56228">
        <ele>505.61389160156</ele>
        <time>2020-06-03T18:10:33.855Z</time>
      </trkpt>
      <trkpt lat="44.5556" lon="2.56168">
        <ele>500.71722412109</ele>
        <time>2020-06-03T18:10:41.308Z</time>
      </trkpt>
      <trkpt lat="44.55539" lon="2.56033">
        <ele>489.62026977539</ele>
        <time>2020-06-03T18:10:48.790Z</time>
      </trkpt>
      <trkpt lat="44.55543" lon="2.5602">
        <ele>491.21646118164</ele>
        <time>2020-06-03T18:10:56.275Z</time>
      </trkpt>
      <trkpt lat="44.55623" lon="2.56061">
        <ele>518.43041992188</ele>
        <time>2020-06-03T18:11:03.784Z</time>
      </trkpt>
      <trkpt lat="44.55641" lon="2.56084">
        <ele>520.10168457031</ele>
        <time>2020-06-03T18:11:11.300Z</time>
      </trkpt>
      <trkpt lat="44.5566" lon="2.56112">
        <ele>521.36315917969</ele>
        <time>2020-06-03T18:11:18.824Z</time>
      </trkpt>
      <trkpt lat="44.55711" lon="2.56118">
        <ele>523.15063476562</ele>
        <time>2020-06-03T18:11:26.363Z</time>
      </trkpt>
      <trkpt lat="44.55739" lon="2.56132">
        <ele>522.64862060547</ele>
        <time>2020-06-03T18:11:33.910Z</time>
      </trkpt>
      <trkpt lat="44.55771" lon="2.56124">
        <ele>523.62731933594</ele>
        <time>2020-06-03T18:11:41.466Z</time>
      </trkpt>
      <trkpt lat="44.55796" lon="2.56099">
        <ele>525.69976806641</ele>
        <time>2020-06-03T18:11:49.031Z</time>
      </trkpt>
      <trkpt lat="44.55824" lon="2.5603">
        <ele>528.80755615234</ele>
        <time>2020-06-03T18:11:56.612Z</time>
      </trkpt>
      <trkpt lat="44.55826" lon="2.55966">
        <ele>528.05798339844</ele>
        <time>2020-06-03T18:12:04.206Z</time>
      </trkpt>
      <trkpt lat="44.55776" lon="2.55855">
        <ele>528.69146728516</ele>
        <time>2020-06-03T18:12:11.827Z</time>
      </trkpt>
      <trkpt lat="44.55774" lon="2.55826">
        <ele>526.29357910156</ele>
        <time>2020-06-03T18:12:19.454Z</time>
      </trkpt>
      <trkpt lat="44.55784" lon="2.55743">
        <ele>524.90747070312</ele>
        <time>2020-06-03T18:12:27.099Z</time>
      </trkpt>
      <trkpt lat="44.558" lon="2.55702">
        <ele>523.83905029297</ele>
        <time>2020-06-03T18:12:34.753Z</time>
      </trkpt>
      <trkpt lat="44.558" lon="2.55702">
        <ele>523.83874511719</ele>
        <time>2020-06-03T18:12:42.407Z</time>
      </trkpt>
      <trkpt lat="44.55838" lon="2.5565">
        <ele>521.84979248047</ele>
        <time>2020-06-03T18:12:50.076Z</time>
      </trkpt>
      <trkpt lat="44.55889" lon="2.55619">
        <ele>525.53930664062</ele>
        <time>2020-06-03T18:12:57.761Z</time>
      </trkpt>
      <trkpt lat="44.55889" lon="2.55618">
        <ele>525.57568359375</ele>
        <time>2020-06-03T18:13:05.446Z</time>
      </trkpt>
      <trkpt lat="44.55889" lon="2.55618">
        <ele>525.57653808594</ele>
        <time>2020-06-03T18:13:13.131Z</time>
      </trkpt>
      <trkpt lat="44.55902" lon="2.5561">
        <ele>526.51831054688</ele>
        <time>2020-06-03T18:13:20.820Z</time>
      </trkpt>
      <trkpt lat="44.55929" lon="2.55632">
        <ele>526.96887207031</ele>
        <time>2020-06-03T18:13:28.518Z</time>
      </trkpt>
      <trkpt lat="44.55968" lon="2.55771">
        <ele>529.93035888672</ele>
        <time>2020-06-03T18:13:36.247Z</time>
      </trkpt>
      <trkpt lat="44.56005" lon="2.55874">
        <ele>532.86529541016</ele>
        <time>2020-06-03T18:13:43.999Z</time>
      </trkpt>
      <trkpt lat="44.56005" lon="2.55874">
        <ele>532.86645507812</ele>
        <time>2020-06-03T18:13:51.751Z</time>
      </trkpt>
      <trkpt lat="44.56068" lon="2.5618">
        <ele>536.78729248047</ele>
        <time>2020-06-03T18:13:59.568Z</time>
      </trkpt>
      <trkpt lat="44.56091" lon="2.56209">
        <ele>539.92816162109</ele>
        <time>2020-06-03T18:14:07.394Z</time>
      </trkpt>
      <trkpt lat="44.56174" lon="2.56267">
        <ele>551.62158203125</ele>
        <time>2020-06-03T18:14:15.247Z</time>
      </trkpt>
      <trkpt lat="44.5618" lon="2.56284">
        <ele>554.45355224609</ele>
        <time>2020-06-03T18:14:23.104Z</time>
      </trkpt>
      <trkpt lat="44.56171" lon="2.56307">
        <ele>555.8720703125</ele>
        <time>2020-06-03T18:14:30.966Z</time>
      </trkpt>
      <trkpt lat="44.56131" lon="2.56325">
        <ele>550.51715087891</ele>
        <time>2020-06-03T18:14:38.840Z</time>
      </trkpt>
      <trkpt lat="44.56105" lon="2.56346">
        <ele>547.99328613281</ele>
        <time>2020-06-03T18:14:46.722Z</time>
      </trkpt>
      <trkpt lat="44.56087" lon="2.56455">
        <ele>560.92919921875</ele>
        <time>2020-06-03T18:14:54.627Z</time>
      </trkpt>
      <trkpt lat="44.56004" lon="2.56652">
        <ele>570.62939453125</ele>
        <time>2020-06-03T18:15:02.579Z</time>
      </trkpt>
      <trkpt lat="44.55973" lon="2.56776">
        <ele>575.80523681641</ele>
        <time>2020-06-03T18:15:10.558Z</time>
      </trkpt>
      <trkpt lat="44.5597" lon="2.5682">
        <ele>579.1005859375</ele>
        <time>2020-06-03T18:15:18.546Z</time>
      </trkpt>
      <trkpt lat="44.56" lon="2.56883">
        <ele>586.20721435547</ele>
        <time>2020-06-03T18:15:26.549Z</time>
      </trkpt>
      <trkpt lat="44.56015" lon="2.56979">
        <ele>580.63110351562</ele>
        <time>2020-06-03T18:15:34.572Z</time>
      </trkpt>
      <trkpt lat="44.56125" lon="2.57152">
        <ele>607.24053955078</ele>
        <time>2020-06-03T18:15:42.643Z</time>
      </trkpt>
      <trkpt lat="44.56134" lon="2.57183">
        <ele>607.42437744141</ele>
        <time>2020-06-03T18:15:50.721Z</time>
      </trkpt>
      <trkpt lat="44.56127" lon="2.57246">
        <ele>611.85876464844</ele>
        <time>2020-06-03T18:15:58.812Z</time>
      </trkpt>
      <trkpt lat="44.56105" lon="2.57302">
        <ele>613</ele>
        <time>2020-06-03T18:16:06.916Z</time>
      </trkpt>
      <trkpt lat="44.56062" lon="2.57383">
        <ele>618.66595458984</ele>
        <time>2020-06-03T18:16:15.040Z</time>
      </trkpt>
      <trkpt lat="44.56042" lon="2.57472">
        <ele>619</ele>
        <time>2020-06-03T18:16:23.183Z</time>
      </trkpt>
      <trkpt lat="44.56042" lon="2.57523">
        <ele>618.73693847656</ele>
        <time>2020-06-03T18:16:31.337Z</time>
      </trkpt>
      <trkpt lat="44.56064" lon="2.57604">
        <ele>618.91394042969</ele>
        <time>2020-06-03T18:16:39.508Z</time>
      </trkpt>
      <trkpt lat="44.56064" lon="2.57641">
        <ele>618.80059814453</ele>
        <time>2020-06-03T18:16:47.687Z</time>
      </trkpt>
      <trkpt lat="44.56064" lon="2.57641">
        <ele>618.80120849609</ele>
        <time>2020-06-03T18:16:55.866Z</time>
      </trkpt>
      <trkpt lat="44.56062" lon="2.57727">
        <ele>619.79656982422</ele>
        <time>2020-06-03T18:17:04.063Z</time>
      </trkpt>
      <trkpt lat="44.5608" lon="2.57844">
        <ele>622.98193359375</ele>
        <time>2020-06-03T18:17:12.284Z</time>
      </trkpt>
      <trkpt lat="44.56087" lon="2.57883">
        <ele>623.98669433594</ele>
        <time>2020-06-03T18:17:20.513Z</time>
      </trkpt>
      <trkpt lat="44.56104" lon="2.57923">
        <ele>625.49499511719</ele>
        <time>2020-06-03T18:17:28.752Z</time>
      </trkpt>
      <trkpt lat="44.56253" lon="2.58147">
        <ele>632.53729248047</ele>
        <time>2020-06-03T18:17:37.053Z</time>
      </trkpt>
      <trkpt lat="44.56326" lon="2.58183">
        <ele>632.31512451172</ele>
        <time>2020-06-03T18:17:45.376Z</time>
      </trkpt>
      <trkpt lat="44.56351" lon="2.58184">
        <ele>630.22979736328</ele>
        <time>2020-06-03T18:17:53.706Z</time>
      </trkpt>
      <trkpt lat="44.56387" lon="2.5817">
        <ele>627.51831054688</ele>
        <time>2020-06-03T18:18:02.047Z</time>
      </trkpt>
      <trkpt lat="44.56423" lon="2.58175">
        <ele>624.77587890625</ele>
        <time>2020-06-03T18:18:10.398Z</time>
      </trkpt>
      <trkpt lat="44.565" lon="2.582">
        <ele>619.88452148438</ele>
        <time>2020-06-03T18:18:18.772Z</time>
      </trkpt>
      <trkpt lat="44.56576" lon="2.58327">
        <ele>621.380859375</ele>
        <time>2020-06-03T18:18:27.180Z</time>
      </trkpt>
      <trkpt lat="44.5659" lon="2.58398">
        <ele>622.08135986328</ele>
        <time>2020-06-03T18:18:35.603Z</time>
      </trkpt>
      <trkpt lat="44.56606" lon="2.58423">
        <ele>624.43701171875</ele>
        <time>2020-06-03T18:18:44.033Z</time>
      </trkpt>
      <trkpt lat="44.56618" lon="2.58435">
        <ele>626.39978027344</ele>
        <time>2020-06-03T18:18:52.467Z</time>
      </trkpt>
      <trkpt lat="44.56672" lon="2.58459">
        <ele>630.37109375</ele>
        <time>2020-06-03T18:19:00.917Z</time>
      </trkpt>
      <trkpt lat="44.56688" lon="2.58482">
        <ele>630.69287109375</ele>
        <time>2020-06-03T18:19:09.374Z</time>
      </trkpt>
      <trkpt lat="44.56688" lon="2.58509">
        <ele>630.42767333984</ele>
        <time>2020-06-03T18:19:17.836Z</time>
      </trkpt>
      <trkpt lat="44.56675" lon="2.58566">
        <ele>633.80334472656</ele>
        <time>2020-06-03T18:19:26.310Z</time>
      </trkpt>
      <trkpt lat="44.56688" lon="2.58619">
        <ele>639.35681152344</ele>
        <time>2020-06-03T18:19:34.796Z</time>
      </trkpt>
      <trkpt lat="44.56688" lon="2.58619">
        <ele>639.35711669922</ele>
        <time>2020-06-03T18:19:43.282Z</time>
      </trkpt>
      <trkpt lat="44.56741" lon="2.58716">
        <ele>642.36328125</ele>
        <time>2020-06-03T18:19:51.793Z</time>
      </trkpt>
      <trkpt lat="44.56799" lon="2.58763">
        <ele>642.21667480469</ele>
        <time>2020-06-03T18:20:00.323Z</time>
      </trkpt>
      <trkpt lat="44.56875" lon="2.58822">
        <ele>648.29223632812</ele>
        <time>2020-06-03T18:20:08.878Z</time>
      </trkpt>
      <trkpt lat="44.56876" lon="2.58825">
        <ele>648.52416992188</ele>
        <time>2020-06-03T18:20:17.434Z</time>
      </trkpt>
    </trkseg>
  </trk>
</gpx>